Flight Track Log - Related Links

Times and Time Zones

All times are in EDT time to prevent confusion due to time zone crossing. See the DAL268 flight status page for this flight to view local times or setup timezone preferences in your user account.

Time Position Orientation Groundspeed Altitude Reporting Facility
EDT Latitude Longitude Course Direction KTS MPH feet Rate Location/Type
Sun 12:02:56 AM 40.6250 -73.7730 143° Southeast 76 87  Level FlightAware ADS-B
Sun 12:03:16 AM 40.6170 -73.7800 214° Southwest 145 167 1,171 Level FlightAware ADS-B
Sun 12:03:37 AM 40.6030 -73.7910 211° Southwest 158 182 800 2,400 Climbing FlightAware ADS-B
Sun 12:03:56 AM 40.5920 -73.8010 215° Southwest 155 178 1,600 1,756 Climbing FlightAware ADS-B
Sun 12:04:18 AM 40.5780 -73.8140 215° Southwest 188 216 2,000 1,200 Climbing FlightAware ADS-B
Sun 12:04:26 AM 40.5710 -73.8180 203° Southwest 194 223 2,200 1,714 Climbing FlightAware ADS-B
Sun 12:04:32 AM 40.5650 -73.8190 187° South 199 229 2,400 1,286 Climbing FlightAware ADS-B
Sun 12:04:54 AM 40.5450 -73.8110 163° South 230 265 2,800 1,241 Climbing FlightAware ADS-B
Sun 12:05:01 AM 40.5370 -73.8050 150° Southeast 242 278 3,000 1,600 Climbing FlightAware ADS-B
Sun 12:05:09 AM 40.5310 -73.7970 135° Southeast 253 291 3,200 1,143 Climbing FlightAware ADS-B
Sun 12:05:22 AM 40.5220 -73.7810 126° Southeast 274 315 3,400 1,429 Climbing FlightAware ADS-B
Sun 12:05:30 AM 40.5170 -73.7690 119° Southeast 281 323 3,700 2,700 Climbing FlightAware ADS-B
Sun 12:05:42 AM 40.5130 -73.7490 105° East 289 333 4,300 2,667 Climbing FlightAware ADS-B
Sun 12:05:48 AM 40.5130 -73.7380 90° East 299 344 4,500 2,000 Climbing FlightAware ADS-B
Sun 12:06:12 AM 40.5220 -73.6950 75° East 324 373 5,300 2,063 Climbing FlightAware ADS-B
Sun 12:06:20 AM 40.5290 -73.6810 57° Northeast 332 382 5,600 1,800 Climbing FlightAware ADS-B
Sun 12:06:32 AM 40.5440 -73.6660 37° Northeast 343 395 5,900 2,438 Climbing FlightAware ADS-B
Sun 12:06:52 AM 40.5730 -73.6480 25° Northeast 341 392 6,900 2,850 Climbing FlightAware ADS-B
Sun 12:07:12 AM 40.6030 -73.6370 16° North 339 390 7,800 2,591 Climbing FlightAware ADS-B
Sun 12:07:36 AM 40.6400 -73.6240 15° North 344 396 8,800 2,318 Climbing FlightAware ADS-B
Sun 12:07:56 AM 40.6710 -73.6130 15° North 349 402 9,500 2,036 Climbing FlightAware ADS-B
Sun 12:08:32 AM 40.7280 -73.5920 16° North 365 420 10,700 1,629 Climbing FlightAware ADS-B
Sun 12:09:06 AM 40.7850 -73.5710 16° North 391 450 11,400 1,714 Climbing FlightAware ADS-B
Sun 12:09:42 AM 40.8490 -73.5450 17° North 399 459 12,700 2,118 Climbing FlightAware ADS-B
Sun 12:10:14 AM 40.9050 -73.5210 18° North 407 468 13,800 2,029 Climbing FlightAware ADS-B
Sun 12:10:50 AM 40.9670 -73.4830 25° Northeast 414 476 15,000 2,000 Climbing FlightAware ADS-B
Sun 12:11:26 AM 41.0250 -73.4390 30° Northeast 419 482 16,200 1,833 Climbing FlightAware ADS-B
Sun 12:12:02 AM 41.0890 -73.3900 30° Northeast 430 495 17,200 1,565 Climbing FlightAware ADS-B
Sun 12:12:35 AM 41.1480 -73.3450 30° Northeast 444 511 18,000 1,391 Climbing FlightAware ADS-B
Sun 12:13:11 AM 41.2120 -73.2950 30° Northeast 457 526 18,800 1,397 Climbing FlightAware ADS-B
Sun 12:13:48 AM 41.2810 -73.2420 30° Northeast 469 540 19,700 1,217 Climbing FlightAware ADS-B
Sun 12:14:20 AM 41.3420 -73.1950 30° Northeast 484 557 20,200 938 Climbing FlightAware ADS-B
Sun 12:14:52 AM 41.4020 -73.1490 30° Northeast 496 571 20,700 904 Climbing FlightAware ADS-B
Sun 12:15:33 AM 41.4870 -73.0830 30° Northeast 516 594 21,300 900 Climbing FlightAware ADS-B
Sun 12:16:12 AM 41.5680 -73.0210 30° Northeast 529 609 21,900 1,184 Climbing FlightAware ADS-B
Sun 12:16:49 AM 41.6510 -72.9570 30° Northeast 537 618 22,800 1,333 Climbing FlightAware ADS-B
Sun 12:17:24 AM 41.7260 -72.8980 30° Northeast 541 623 23,500 1,417 Climbing FlightAware ADS-B
Sun 12:18:01 AM 41.8060 -72.8360 30° Northeast 541 623 24,500 1,412 Climbing FlightAware ADS-B
Sun 12:18:32 AM 41.8740 -72.7840 30° Northeast 547 629 25,100 1,130 Climbing FlightAware ADS-B
Sun 12:19:10 AM 41.9580 -72.7180 30° Northeast 553 636 25,800 1,068 Climbing FlightAware ADS-B
Sun 12:19:45 AM 42.0360 -72.6560 31° Northeast 558 642 26,400 896 Climbing FlightAware ADS-B
Sun 12:20:17 AM 42.1070 -72.6000 30° Northeast 563 648 26,800 957 Climbing FlightAware ADS-B
Sun 12:20:54 AM 42.1900 -72.5340 30° Northeast 564 649 27,500 1,233 Climbing FlightAware ADS-B
Sun 12:21:30 AM 42.2690 -72.4720 30° Northeast 562 647 28,300 1,250 Climbing FlightAware ADS-B
Sun 12:22:06 AM 42.3510 -72.4070 30° Northeast 563 648 29,000 1,147 Climbing FlightAware ADS-B
Sun 12:22:38 AM 42.4240 -72.3490 30° Northeast 563 648 29,600 1,130 Climbing FlightAware ADS-B
Sun 12:23:15 AM 42.5070 -72.2820 31° Northeast 561 646 30,300 1,167 Climbing FlightAware ADS-B
Sun 12:23:50 AM 42.5860 -72.2180 31° Northeast 560 644 31,000 592 Climbing FlightAware ADS-B
Sun 12:24:26 AM 42.6650 -72.1520 32° Northeast 559 643 31,000  Level FlightAware ADS-B
Sun 12:24:59 AM 42.7370 -72.0940 31° Northeast 558 642 31,000  Level FlightAware ADS-B
Sun 12:25:34 AM 42.8140 -72.0300 31° Northeast 556 640 31,000  Level FlightAware ADS-B
Sun 12:26:11 AM 42.8960 -71.9630 31° Northeast 555 639 31,000  Level FlightAware ADS-B
Sun 12:26:45 AM 42.9720 -71.9010 31° Northeast 555 639 31,000  Level FlightAware ADS-B
Sun 12:27:18 AM 43.0450 -71.8400 31° Northeast 557 641 31,000  Level FlightAware ADS-B
Sun 12:27:55 AM 43.1270 -71.7730 31° Northeast 558 642 31,000  Level FlightAware ADS-B
Sun 12:28:29 AM 43.2020 -71.7100 31° Northeast 559 643 31,000  Level FlightAware ADS-B
Sun 12:29:04 AM 43.2800 -71.6450 31° Northeast 560 644 31,000  Level FlightAware ADS-B
Sun 12:29:39 AM 43.3560 -71.5820 31° Northeast 560 644 31,000  Level FlightAware ADS-B
Sun 12:30:16 AM 43.4380 -71.5130 31° Northeast 561 646 31,000  Level FlightAware ADS-B
Sun 12:30:51 AM 43.5150 -71.4480 31° Northeast 562 647 31,000  Level FlightAware ADS-B
Sun 12:31:22 AM 43.5860 -71.3890 31° Northeast 560 644 31,000  Level FlightAware ADS-B
Sun 12:31:59 AM 43.6670 -71.3210 31° Northeast 558 642 31,000  Level FlightAware ADS-B
Sun 12:32:34 AM 43.7450 -71.2570 31° Northeast 561 646 31,000  Level FlightAware ADS-B
Sun 12:33:08 AM 43.8190 -71.1950 31° Northeast 561 646 31,000  Level FlightAware ADS-B
Sun 12:33:44 AM 43.9000 -71.1270 31° Northeast 561 646 31,000  Level FlightAware ADS-B
Sun 12:34:21 AM 43.9830 -71.0580 31° Northeast 561 646 31,000  Level FlightAware ADS-B
Sun 12:34:57 AM 44.0610 -70.9920 31° Northeast 558 642 31,000  Level FlightAware ADS-B
Sun 12:35:29 AM 44.1320 -70.9310 32° Northeast 558 642 31,000  Level FlightAware ADS-B
Sun 12:36:03 AM 44.2080 -70.8660 32° Northeast 555 639 31,000  Level FlightAware ADS-B
Sun 12:36:40 AM 44.2890 -70.7960 32° Northeast 554 638 31,000  Level FlightAware ADS-B
Sun 12:37:17 AM 44.3680 -70.7270 32° Northeast 553 636 31,000  Level FlightAware ADS-B
Sun 12:37:52 AM 44.4450 -70.6600 32° Northeast 555 639 31,000  Level FlightAware ADS-B
Sun 12:38:24 AM 44.5140 -70.5980 33° Northeast 554 638 31,000  Level FlightAware ADS-B
Sun 12:39:01 AM 44.5950 -70.5270 32° Northeast 549 632 31,000  Level FlightAware ADS-B
Sun 12:39:35 AM 44.6690 -70.4630 32° Northeast 548 631 31,000  Level FlightAware ADS-B
Sun 12:40:09 AM 44.7370 -70.4020 32° Northeast 548 631 31,000  Level FlightAware ADS-B
Sun 12:40:44 AM 44.8160 -70.3330 32° Northeast 543 625 31,000  Level FlightAware ADS-B
Sun 12:41:22 AM 44.8960 -70.2620 32° Northeast 547 629 31,000  Level FlightAware ADS-B
Sun 12:41:54 AM 44.9650 -70.2010 32° Northeast 548 631 31,000  Level FlightAware ADS-B
Sun 12:42:28 AM 45.0360 -70.1380 32° Northeast 546 628 31,000  Level FlightAware ADS-B
Sun 12:43:03 AM 45.1080 -70.0730 32° Northeast 543 625 31,000  Level FlightAware ADS-B
Sun 12:43:38 AM 45.1850 -70.0040 32° Northeast 543 625 31,000  Level FlightAware ADS-B
Sun 12:44:13 AM 45.2600 -69.9370 32° Northeast 544 626 31,000  Level FlightAware ADS-B
Sun 12:44:48 AM 45.3340 -69.8700 32° Northeast 543 625 31,000  Level FlightAware ADS-B
Sun 12:45:23 AM 45.4080 -69.8030 32° Northeast 546 628 31,000  Level FlightAware ADS-B
Sun 12:45:58 AM 45.4760 -69.7400 33° Northeast 546 628 31,000  Level FlightAware ADS-B
Sun 12:46:33 AM 45.5570 -69.6660 33° Northeast 548 631 31,000  Level FlightAware ADS-B
Sun 12:47:08 AM 45.6280 -69.6000 33° Northeast 542 624 31,000  Level FlightAware ADS-B
Sun 12:47:43 AM 45.7030 -69.5310 33° Northeast 545 627 31,000  Level FlightAware ADS-B
Sun 12:48:18 AM 45.7730 -69.4670 33° Northeast 545 627 31,000  Level FlightAware ADS-B
Sun 12:48:53 AM 45.8520 -69.3950 32° Northeast 545 627 31,000  Level FlightAware ADS-B
Sun 12:49:28 AM 45.9280 -69.3240 33° Northeast 546 628 31,000  Level FlightAware ADS-B
Sun 12:50:08 AM 46.0140 -69.2450 33° Northeast 552 635 31,000  Level FlightAware ADS-B
Sun 12:50:48 AM 46.1000 -69.1650 33° Northeast 552 635 31,000  Level FlightAware ADS-B
Sun 12:51:18 AM 46.1620 -69.1070 33° Northeast 553 636 31,000  Level FlightAware ADS-B
Sun 12:51:53 AM 46.2390 -69.0350 33° Northeast 550 633 31,000  Level FlightAware ADS-B
Sun 12:52:33 AM 46.3170 -68.9610 33° Northeast 551 634 31,000  Level FlightAware ADS-B
Sun 12:53:03 AM 46.3850 -68.8970 33° Northeast 553 636 31,000  Level FlightAware ADS-B
Sun 12:53:43 AM 46.4700 -68.8150 34° Northeast 553 636 31,000  Level FlightAware ADS-B
Sun 12:54:13 AM 46.5330 -68.7550 33° Northeast 555 639 31,000  Level FlightAware ADS-B
Sun 12:54:48 AM 46.6120 -68.6790 33° Northeast 556 640 31,000  Level FlightAware ADS-B
Sun 12:55:23 AM 46.6880 -68.6050 34° Northeast 561 646 31,000  Level FlightAware ADS-B
Sun 12:56:03 AM 46.7730 -68.5220 34° Northeast 563 648 31,000  Level FlightAware ADS-B
Sun 12:56:33 AM 46.8360 -68.4620 33° Northeast 564 649 31,000  Level FlightAware ADS-B
Sun 12:57:18 AM 46.9390 -68.3610 34° Northeast 570 656 31,000  Level FlightAware ADS-B
Sun 12:57:53 AM 47.0160 -68.2850 34° Northeast 573 659 31,000  Level FlightAware ADS-B
Sun 12:58:28 AM 47.0910 -68.2120 34° Northeast 573 659 31,000  Level FlightAware ADS-B
Sun 12:59:03 AM 47.1690 -68.1360 34° Northeast 576 663 31,000  Level FlightAware ADS-B
Sun 12:59:38 AM 47.2470 -68.0590 34° Northeast 578 665 31,000  Level FlightAware ADS-B
Sun 01:00:13 AM 47.3260 -67.9810 34° Northeast 576 663 31,000  Level FlightAware ADS-B
Sun 01:00:48 AM 47.4030 -67.9060 33° Northeast 578 665 31,000  Level FlightAware ADS-B
Sun 01:01:23 AM 47.4760 -67.8330 34° Northeast 580 667 31,000  Level FlightAware ADS-B
Sun 01:02:01 AM 47.5610 -67.7490 34° Northeast 582 670 31,000  Level FlightAware ADS-B
Sun 01:02:34 AM 47.6410 -67.6680 34° Northeast 581 669 31,000  Level FlightAware ADS-B
Sun 01:03:15 AM 47.7140 -67.5940 34° Northeast 581 669 31,000  Level FlightAware ADS-B
Sun 01:03:52 AM 47.7840 -67.5240 34° Northeast 581 669 31,000  Level FlightAware ADS-B
Sun 01:04:06 AM 47.8500 -67.4333 35° Northeast 580 667 31,000  Level Gander Center
Sun 01:04:28 AM 47.8520 -67.4550 34° Northeast 581 669 31,000  Level FlightAware ADS-B
Sun 01:05:06 AM 47.9667 -67.3000 37° Northeast 580 667 31,000  Level Gander Center
Sun 01:06:06 AM 48.1167 -67.1667 31° Northeast 580 667 31,000  Level Gander Center
Sun 01:07:00 AM 48.1455 -67.1189 35° Northeast  Level FlightAware Approximate
Sun 01:07:06 AM 48.2333 -67.0333 37° Northeast 580 667 31,000  Level Gander Center
Sun 01:08:00 AM 48.2652 -66.9943 35° Northeast  Level FlightAware Approximate
Sun 01:08:06 AM 48.3833 -66.9000 31° Northeast 580 667 31,000  Level Gander Center
Sun 01:09:00 AM 48.3848 -66.8691 35° Northeast  Level FlightAware Approximate
Sun 01:09:06 AM 48.5167 -66.7667 34° Northeast 580 667 31,000  Level Gander Center
Sun 01:10:06 AM 48.6333 -66.6000 43° Northeast 580 667 31,000  Level Gander Center
Sun 01:11:06 AM 48.7833 -66.4667 30° Northeast 580 667 31,000  Level Gander Center
Sun 01:12:06 AM 48.9000 -66.3167 40° Northeast 590 679 31,000  Level Gander Center
Sun 01:13:06 AM 49.0500 -66.1833 30° Northeast 590 679 31,000  Level Gander Center
Sun 01:14:06 AM 49.1667 -66.0333 40° Northeast 590 679 31,000  Level Gander Center
Sun 01:14:06 AM 49.1667 -66.0333 40° Northeast 580 667 31,000  Level Moncton Center
Sun 01:15:06 AM 49.3167 -65.8833 33° Northeast 580 667 31,000  Level Moncton Center
Sun 01:16:06 AM 49.4333 -65.7333 40° Northeast 580 667 31,000  Level Moncton Center
Sun 01:17:06 AM 49.5667 -65.5833 36° Northeast 580 667 31,000  Level Moncton Center
Sun 01:18:06 AM 49.7000 -65.4667 29° Northeast 580 667 31,000  Level Moncton Center
Sun 01:19:06 AM 49.8333 -65.3000 39° Northeast 580 667 31,000  Level Moncton Center
Sun 01:20:06 AM 49.9500 -65.1500 40° Northeast 580 667 31,000  Level Moncton Center
Sun 01:21:06 AM 50.1000 -65.0000 33° Northeast 580 667 31,000  Level Moncton Center
Sun 01:22:06 AM 50.2167 -64.8500 39° Northeast 580 667 31,000  Level Moncton Center
Sun 01:23:06 AM 50.3500 -64.6833 39° Northeast 580 667 31,000  Level Moncton Center
Sun 01:24:06 AM 50.4667 -64.5333 39° Northeast 580 667 31,000  Level Gander Center
Sun 01:25:06 AM 50.6167 -64.4000 29° Northeast 580 667 31,000  Level Gander Center
Sun 01:26:06 AM 50.7333 -64.2333 42° Northeast 580 667 31,000  Level Gander Center
Sun 01:27:06 AM 50.8500 -64.0833 39° Northeast 580 667 31,000  Level Gander Center
Sun 01:28:06 AM 51.0000 -63.9333 32° Northeast 580 667 31,000  Level Gander Center
Sun 01:29:06 AM 51.1333 -63.7833 35° Northeast 580 667 31,000  Level Gander Center
Sun 01:30:06 AM 51.2500 -63.6333 39° Northeast 580 667 31,000  Level Gander Center
Sun 01:31:06 AM 51.3833 -63.4833 35° Northeast 580 667 31,000  Level Gander Center
Sun 01:32:06 AM 51.5000 -63.3167 42° Northeast 580 667 31,000  Level Gander Center
Sun 01:33:06 AM 51.6500 -63.1333 37° Northeast 580 667 31,000  Level Gander Center
Sun 01:34:06 AM 51.7667 -62.9833 38° Northeast 580 667 31,000  Level Gander Center
Sun 01:35:06 AM 51.9000 -62.8333 35° Northeast 580 667 31,000  Level Gander Center
Sun 01:36:06 AM 52.0167 -62.6667 41° Northeast 580 667 31,000  Level Gander Center
Sun 01:37:06 AM 52.1333 -62.5000 41° Northeast 580 667 31,000  Level Gander Center
Sun 01:38:06 AM 52.2667 -62.3500 35° Northeast 580 667 31,000  Level Gander Center
Sun 01:39:06 AM 52.3833 -62.1833 41° Northeast 580 667 31,000  Level Gander Center
Sun 01:40:06 AM 52.5167 -62.0000 40° Northeast 580 667 31,000  Level Gander Center
Sun 01:41:06 AM 52.6500 -61.8333 37° Northeast 580 667 31,000  Level Gander Center
Sun 01:42:06 AM 52.7667 -61.6333 46° Northeast 580 667 31,000  Level Gander Center
Sun 01:43:06 AM 52.8833 -61.4500 43° Northeast 580 667 31,000  Level Gander Center
Sun 01:44:06 AM 53.0000 -61.2833 41° Northeast 580 667 31,000  Level Gander Center
Sun 01:45:06 AM 53.1167 -61.0833 46° Northeast 580 667 31,000  Level Gander Center
Sun 01:46:06 AM 53.2333 -60.9167 41° Northeast 580 667 31,000  Level Gander Center
Sun 01:47:06 AM 53.3500 -60.7167 46° Northeast 580 667 31,000  Level Gander Center
Sun 01:48:06 AM 53.4667 -60.5500 40° Northeast 580 667 31,000  Level Gander Center
Sun 01:49:06 AM 53.5833 -60.3500 45° Northeast 580 667 31,000  Level Gander Center
Sun 01:50:06 AM 53.6833 -60.1500 50° Northeast 580 667 31,000  Level Gander Center
Sun 01:51:06 AM 53.8000 -59.9833 40° Northeast 570 656 31,000  Level Gander Center
Sun 01:52:06 AM 53.9167 -59.7833 45° Northeast 570 656 31,000  Level Gander Center
Sun 01:53:06 AM 54.0333 -59.6000 43° Northeast 570 656 31,000  Level Gander Center
Sun 01:54:06 AM 54.1500 -59.4333 40° Northeast 570 656 31,000  Level Gander Center
Sun 01:55:06 AM 54.2667 -59.2167 47° Northeast 570 656 31,000  Level Gander Center
Sun 01:56:06 AM 54.3833 -59.0167 45° Northeast 570 656 31,000  Level Gander Center
Sun 01:57:06 AM 54.4833 -58.8333 47° Northeast 570 656 31,000  Level Gander Center
Sun 01:58:06 AM 54.6000 -58.6333 45° Northeast 570 656 31,000  Level Gander Center
Sun 01:59:06 AM 54.7167 -58.4167 47° Northeast 570 656 31,000  Level Gander Center
Sun 02:00:06 AM 54.8333 -58.2333 42° Northeast 570 656 31,000  Level Gander Center
Sun 02:01:06 AM 54.9333 -58.0167 51° Northeast 570 656 31,000 -200 Level Gander Center
Sun 02:02:06 AM 55.0333 -57.8333 46° Northeast 570 656 30,600 -450 Descending Gander Center
Sun 02:03:06 AM 55.1667 -57.6333 41° Northeast 570 656 30,100 -300 Descending Gander Center
Sun 02:04:06 AM 55.2667 -57.4333 49° Northeast 570 656 30,000 -50 Descending Gander Center
Sun 02:05:06 AM 55.3667 -57.2500 46° Northeast 570 656 30,000  Level Gander Center
Sun 02:06:06 AM 55.4833 -57.0333 46° Northeast 570 656 30,000  Level Gander Center
Sun 02:07:06 AM 55.5500 -56.8000 63° Northeast 570 656 30,000  Level Gander Center
Sun 02:08:06 AM 55.6333 -56.5167 62° Northeast 580 667 30,000  Level Gander Center
Sun 02:09:00 AM 55.5167 -57.0167 66° East 577 664 30,000  Level ETMS Enhanced Traffic Management System
Sun 02:10:06 AM 55.7333 -56.0000 66° East 570 656 30,000  Level Gander Center
Sun 02:11:06 AM 55.8167 -55.7500 59° Northeast 570 656 30,000  Level Gander Center
Sun 02:12:06 AM 55.8667 -55.4667 72° East 580 667 30,000  Level Gander Center
Sun 02:13:06 AM 55.9333 -55.2500 61° Northeast 590 679 30,000  Level Gander Center
Sun 02:14:06 AM 55.9833 -54.9833 71° East 580 667 30,000  Level Gander Center
Sun 02:15:06 AM 56.0333 -54.7333 70° East 580 667 30,000  Level Gander Center
Sun 02:16:06 AM 56.1000 -54.4500 67° East 570 656 30,000  Level Gander Center
Sun 02:17:06 AM 56.1500 -54.2000 70° East 570 656 30,000  Level Gander Center
Sun 02:18:06 AM 56.2000 -53.9167 72° East 570 656 30,000  Level Gander Center
Sun 02:19:06 AM 56.2833 -53.6667 59° Northeast 570 656 30,000  Level Gander Center
Sun 02:20:55 AM 56.3667 -53.1667 73° East 570 656 30,000  Level Gander Center
Sun 02:22:06 AM 56.4333 -52.8500 69° East 570 656 30,000  Level Gander Center
Sun 02:23:06 AM 56.4833 -52.5833 71° East 550 633 30,000  Level Gander Center
Sun 02:24:06 AM 56.5333 -52.3000 72° East 570 656 30,000  Level Gander Center
Sun 02:25:06 AM 56.5833 -52.0500 70° East 570 656 30,000  Level Gander Center
Sun 02:28:00 AM 56.6963 -51.5145 69° East  Level FlightAware Approximate
Sun 02:35:00 AM 57.0448 -49.6838 75° East  Level FlightAware Approximate
Sun 02:35:00 AM 57.0000 -50.0000 75° East 545 627 30,000  Level ETMS Enhanced Traffic Management System
Sun 02:36:00 AM 57.0811 -49.4238 76° East  Level FlightAware Approximate
Sun 02:37:00 AM 57.1167 -49.1632 76° East  Level FlightAware Approximate
Sun 02:38:00 AM 57.1519 -48.9021 76° East  Level FlightAware Approximate
Sun 02:39:00 AM 57.1864 -48.6405 76° East  Level FlightAware Approximate
Sun 02:40:00 AM 57.2205 -48.3785 76° East  Level FlightAware Approximate
Sun 02:41:00 AM 57.3236 -47.5544 77° East 545 627 30,000  Level FlightAware Transoceanic
Sun 02:42:00 AM 57.3566 -47.2801 78° East 545 627 30,000  Level FlightAware Transoceanic
Sun 02:43:00 AM 57.3890 -47.0053 78° East 545 627 30,000  Level FlightAware Transoceanic
Sun 02:44:00 AM 57.4208 -46.7300 78° East 545 627 30,000  Level FlightAware Transoceanic
Sun 02:45:00 AM 57.4520 -46.4543 78° East 545 627 30,000  Level FlightAware Transoceanic
Sun 02:46:00 AM 57.4826 -46.1781 78° East 545 627 30,000  Level FlightAware Transoceanic
Sun 02:47:00 AM 57.5126 -45.9014 79° East 545 627 30,000  Level FlightAware Transoceanic
Sun 02:48:00 AM 57.5419 -45.6242 79° East 545 627 30,000  Level FlightAware Transoceanic
Sun 02:49:00 AM 57.5707 -45.3467 79° East 545 627 30,000  Level FlightAware Transoceanic
Sun 02:50:00 AM 57.5989 -45.0687 79° East 545 627 30,000  Level FlightAware Transoceanic
Sun 02:51:00 AM 57.6264 -44.7902 80° East 545 627 30,000  Level FlightAware Transoceanic
Sun 02:52:00 AM 57.6534 -44.5114 80° East 545 627 30,000  Level FlightAware Transoceanic
Sun 02:53:00 AM 57.6797 -44.2321 80° East 545 627 30,000  Level FlightAware Transoceanic
Sun 02:54:00 AM 57.7054 -43.9525 80° East 545 627 30,000  Level FlightAware Transoceanic
Sun 02:55:00 AM 57.7305 -43.6724 81° East 545 627 30,000  Level FlightAware Transoceanic
Sun 02:56:00 AM 57.7550 -43.3920 81° East 545 627 30,000  Level FlightAware Transoceanic
Sun 02:57:00 AM 57.7789 -43.1111 81° East 545 627 30,000  Level FlightAware Transoceanic
Sun 02:58:00 AM 57.8021 -42.8300 81° East 545 627 30,000  Level FlightAware Transoceanic
Sun 02:59:00 AM 57.8247 -42.5484 82° East 545 627 30,000  Level FlightAware Transoceanic
Sun 03:00:00 AM 57.8467 -42.2665 82° East 545 627 30,000  Level FlightAware Transoceanic
Sun 03:01:00 AM 57.8681 -41.9843 82° East 545 627 30,000  Level FlightAware Transoceanic
Sun 03:02:00 AM 57.8888 -41.7018 82° East 545 627 30,000  Level FlightAware Transoceanic
Sun 03:03:00 AM 57.9089 -41.4189 83° East 545 627 30,000  Level FlightAware Transoceanic
Sun 03:04:00 AM 57.9284 -41.1357 83° East 545 627 30,000  Level FlightAware Transoceanic
Sun 03:05:00 AM 57.9473 -40.8522 83° East 545 627 30,000  Level FlightAware Transoceanic
Sun 03:06:00 AM 57.9655 -40.5684 83° East 545 627 30,000  Level FlightAware Transoceanic
Sun 03:07:00 AM 57.9831 -40.2843 83° East 545 627 30,000  Level FlightAware Transoceanic
Sun 03:08:00 AM 57.9994 -40.0107 83° East  Level FlightAware Approximate
Sun 03:09:00 AM 58.0152 -39.7368 84° East  Level FlightAware Approximate
Sun 03:10:00 AM 58.0348 -39.7546 75° East  Level FlightAware Approximate
Sun 03:11:00 AM 58.0719 -39.4878 75° East  Level FlightAware Approximate
Sun 03:12:00 AM 58.1085 -39.2205 75° East  Level FlightAware Approximate
Sun 03:13:00 AM 58.1446 -38.9526 76° East  Level FlightAware Approximate
Sun 03:13:00 AM 58.0000 -40.0000 75° East 517 595 30,000  Level ETMS Enhanced Traffic Management System
Sun 03:14:00 AM 58.1801 -38.6842 76° East  Level FlightAware Approximate
Sun 03:15:00 AM 58.2150 -38.4152 76° East  Level FlightAware Approximate
Sun 03:16:00 AM 58.2494 -38.1458 76° East  Level FlightAware Approximate
Sun 03:17:00 AM 58.2831 -37.8758 77° East  Level FlightAware Approximate
Sun 03:18:00 AM 58.3164 -37.6053 77° East  Level FlightAware Approximate
Sun 03:19:00 AM 58.3464 -37.3565 77° East 517 595 30,000  Level FlightAware Transoceanic
Sun 03:20:00 AM 58.3780 -37.0894 77° East 517 595 30,000  Level FlightAware Transoceanic
Sun 03:21:00 AM 58.4090 -36.8218 78° East 517 595 30,000  Level FlightAware Transoceanic
Sun 03:22:00 AM 58.4395 -36.5537 78° East 517 595 30,000  Level FlightAware Transoceanic
Sun 03:23:00 AM 58.4695 -36.2852 78° East 517 595 30,000  Level FlightAware Transoceanic
Sun 03:24:00 AM 58.4989 -36.0162 78° East 517 595 30,000  Level FlightAware Transoceanic
Sun 03:25:00 AM 58.5277 -35.7468 79° East 517 595 30,000  Level FlightAware Transoceanic
Sun 03:26:00 AM 58.5559 -35.4770 79° East 517 595 30,000  Level FlightAware Transoceanic
Sun 03:27:00 AM 58.5836 -35.2067 79° East 517 595 30,000  Level FlightAware Transoceanic
Sun 03:28:00 AM 58.6107 -34.9360 79° East 517 595 30,000  Level FlightAware Transoceanic
Sun 03:29:00 AM 58.6372 -34.6649 79° East 517 595 30,000  Level FlightAware Transoceanic
Sun 03:30:00 AM 58.6632 -34.3933 80° East 517 595 30,000  Level FlightAware Transoceanic
Sun 03:31:00 AM 58.6886 -34.1214 80° East 517 595 30,000  Level FlightAware Transoceanic
Sun 03:32:00 AM 58.7134 -33.8491 80° East 517 595 30,000  Level FlightAware Transoceanic
Sun 03:33:00 AM 58.7377 -33.5764 80° East 517 595 30,000  Level FlightAware Transoceanic
Sun 03:34:00 AM 58.7614 -33.3033 81° East 517 595 30,000  Level FlightAware Transoceanic
Sun 03:35:00 AM 58.7845 -33.0298 81° East 517 595 30,000  Level FlightAware Transoceanic
Sun 03:36:00 AM 58.8070 -32.7560 81° East 517 595 30,000  Level FlightAware Transoceanic
Sun 03:37:00 AM 58.8289 -32.4818 81° East 517 595 30,000  Level FlightAware Transoceanic
Sun 03:38:00 AM 58.8503 -32.2073 82° East 517 595 30,000  Level FlightAware Transoceanic
Sun 03:39:00 AM 58.8710 -31.9325 82° East 517 595 30,000  Level FlightAware Transoceanic
Sun 03:40:00 AM 58.8912 -31.6573 82° East 517 595 30,000  Level FlightAware Transoceanic
Sun 03:41:00 AM 58.9108 -31.3818 82° East 517 595 30,000  Level FlightAware Transoceanic
Sun 03:42:00 AM 58.9298 -31.1061 83° East 517 595 30,000  Level FlightAware Transoceanic
Sun 03:43:00 AM 58.9482 -30.8300 83° East 517 595 30,000  Level FlightAware Transoceanic
Sun 03:44:00 AM 58.9661 -30.5536 83° East 517 595 30,000  Level FlightAware Transoceanic
Sun 03:45:00 AM 58.9833 -30.2769 83° East 517 595 30,000  Level FlightAware Transoceanic
Sun 03:46:00 AM 59.0003 -29.9955 83° East  Level FlightAware Approximate
Sun 03:47:00 AM 59.0004 -29.9910 86° East  Level FlightAware Approximate
Sun 03:48:00 AM 59.0109 -29.7083 86° East  Level FlightAware Approximate
Sun 03:49:00 AM 59.0209 -29.4254 86° East  Level FlightAware Approximate
Sun 03:50:00 AM 59.0303 -29.1423 86° East  Level FlightAware Approximate
Sun 03:51:00 AM 59.0390 -28.8591 86° East  Level FlightAware Approximate
Sun 03:51:00 AM 59.0000 -30.0000 86° East 529 609 30,000  Level ETMS Enhanced Traffic Management System
Sun 03:52:00 AM 59.0471 -28.5758 87° East  Level FlightAware Approximate
Sun 03:53:00 AM 59.0546 -28.2928 87° East  Level FlightAware Approximate
Sun 03:54:00 AM 59.0615 -28.0098 87° East  Level FlightAware Approximate
Sun 03:55:00 AM 59.0677 -27.7265 87° East  Level FlightAware Approximate
Sun 03:56:00 AM 59.0734 -27.4433 88° East  Level FlightAware Approximate
Sun 03:57:00 AM 59.0736 -27.4320 88° East 529 609 30,000  Level FlightAware Transoceanic
Sun 03:58:00 AM 59.0786 -27.1461 88° East 529 609 30,000  Level FlightAware Transoceanic
Sun 03:59:00 AM 59.0830 -26.8601 88° East 529 609 30,000  Level FlightAware Transoceanic
Sun 04:00:00 AM 59.0868 -26.5741 89° East 529 609 30,000  Level FlightAware Transoceanic
Sun 04:01:00 AM 59.0900 -26.2880 89° East 529 609 30,000  Level FlightAware Transoceanic
Sun 04:02:00 AM 59.0925 -26.0018 89° East 529 609 30,000  Level FlightAware Transoceanic
Sun 04:03:00 AM 59.0944 -25.7156 89° East 529 609 30,000  Level FlightAware Transoceanic
Sun 04:04:00 AM 59.0956 -25.4294 90° East 529 609 30,000  Level FlightAware Transoceanic
Sun 04:05:00 AM 59.0963 -25.1431 90° East 529 609 30,000  Level FlightAware Transoceanic
Sun 04:06:00 AM 59.0963 -24.8569 90° East 529 609 30,000  Level FlightAware Transoceanic
Sun 04:07:00 AM 59.0956 -24.5706 90° East 529 609 30,000  Level FlightAware Transoceanic
Sun 04:08:00 AM 59.0944 -24.2844 91° East 529 609 30,000  Level FlightAware Transoceanic
Sun 04:09:00 AM 59.0925 -23.9982 91° East 529 609 30,000  Level FlightAware Transoceanic
Sun 04:10:00 AM 59.0900 -23.7120 91° East 529 609 30,000  Level FlightAware Transoceanic
Sun 04:11:00 AM 59.0868 -23.4259 91° East 529 609 30,000  Level FlightAware Transoceanic
Sun 04:12:00 AM 59.0830 -23.1399 92° East 529 609 30,000  Level FlightAware Transoceanic
Sun 04:13:00 AM 59.0786 -22.8539 92° East 529 609 30,000  Level FlightAware Transoceanic
Sun 04:14:00 AM 59.0736 -22.5680 92° East 529 609 30,000  Level FlightAware Transoceanic
Sun 04:15:00 AM 59.0679 -22.2821 92° East 529 609 30,000  Level FlightAware Transoceanic
Sun 04:16:00 AM 59.0616 -21.9964 93° East 529 609 30,000  Level FlightAware Transoceanic
Sun 04:17:00 AM 59.0547 -21.7108 93° East 529 609 30,000  Level FlightAware Transoceanic
Sun 04:18:00 AM 59.0471 -21.4253 93° East 529 609 30,000  Level FlightAware Transoceanic
Sun 04:19:00 AM 59.0390 -21.1399 93° East 529 609 30,000  Level FlightAware Transoceanic
Sun 04:20:00 AM 59.0302 -20.8547 94° East 529 609 30,000  Level FlightAware Transoceanic
Sun 04:21:00 AM 59.0207 -20.5697 94° East 529 609 30,000  Level FlightAware Transoceanic
Sun 04:22:00 AM 59.0107 -20.2847 94° East 529 609 30,000 66 Level FlightAware Transoceanic
Sun 04:23:00 AM 59.0001 -20.0025 94° East  Level FlightAware Approximate
Sun 04:24:00 AM 58.9886 -19.7205 94° East  Level FlightAware Approximate
Sun 04:25:00 AM 58.9931 -19.7225 93° East  Level FlightAware Approximate
Sun 04:26:00 AM 58.9854 -19.4400 93° East  Level FlightAware Approximate
Sun 04:27:00 AM 58.9771 -19.1577 93° East  Level FlightAware Approximate
Sun 04:28:00 AM 58.9682 -18.8755 93° East  Level FlightAware Approximate
Sun 04:29:00 AM 58.9587 -18.5935 94° East  Level FlightAware Approximate
Sun 04:30:00 AM 58.9486 -18.3116 94° East  Level FlightAware Approximate
Sun 04:31:00 AM 58.9379 -18.0299 94° East  Level FlightAware Approximate
Sun 04:32:00 AM 58.9266 -17.7484 94° East  Level FlightAware Approximate
Sun 04:33:00 AM 58.9146 -17.4671 95° East  Level FlightAware Approximate
Sun 04:34:00 AM 58.9020 -17.1860 95° East  Level FlightAware Approximate
Sun 04:35:00 AM 58.8889 -16.9051 95° East  Level FlightAware Approximate
Sun 04:36:00 AM 58.8751 -16.6244 95° East  Level FlightAware Approximate
Sun 04:37:00 AM 58.8607 -16.3439 96° East  Level FlightAware Approximate
Sun 04:38:00 AM 58.8457 -16.0637 96° East  Level FlightAware Approximate
Sun 04:39:00 AM 58.8301 -15.7837 96° East  Level FlightAware Approximate
Sun 04:40:00 AM 58.8139 -15.5040 96° East  Level FlightAware Approximate
Sun 04:41:00 AM 58.7971 -15.2245 97° East  Level FlightAware Approximate
Sun 04:42:00 AM 58.7797 -14.9453 97° East  Level FlightAware Approximate
Sun 04:43:00 AM 58.7616 -14.6664 97° East  Level FlightAware Approximate
Sun 04:44:00 AM 58.7430 -14.3878 97° East  Level FlightAware Approximate
Sun 04:45:00 AM 58.7238 -14.1095 97° East  Level FlightAware Approximate
Sun 04:46:00 AM 58.7040 -13.8315 98° East  Level FlightAware Approximate
Sun 04:47:00 AM 58.6836 -13.5539 98° East  Level FlightAware Approximate
Sun 04:48:00 AM 58.6626 -13.2765 98° East  Level FlightAware Approximate
Sun 04:49:00 AM 58.6409 -12.9995 98° East  Level FlightAware Approximate
Sun 04:50:00 AM 58.6187 -12.7229 99° East  Level FlightAware Approximate
Sun 04:51:00 AM 58.5959 -12.4466 99° East  Level FlightAware Approximate
Sun 04:51:24 AM 58.2280 -11.7780 99° East 550 633 32,000  Level FlightAware ADS-B
Sun 04:51:59 AM 58.2100 -11.6070 101° East 553 636 32,000  Level FlightAware ADS-B
Sun 04:52:44 AM 58.1920 -11.4140 100° East 553 636 32,000  Level FlightAware ADS-B
Sun 04:53:20 AM 58.1780 -11.2680 100° East 553 636 32,000  Level FlightAware ADS-B
Sun 04:53:56 AM 58.1650 -11.1220 100° East 553 636 32,000  Level FlightAware ADS-B
Sun 04:54:32 AM 58.1510 -10.9760 100° East 553 636 32,000  Level FlightAware ADS-B
Sun 04:54:45 AM 58.1270 -10.8290 107° East 32,000  Level FlightAware ADS-B
Sun 04:55:35 AM 58.0980 -10.5850 103° East 555 639 32,000  Level FlightAware ADS-B
Sun 04:56:12 AM 58.0790 -10.4360 103° East 555 639 32,000  Level FlightAware ADS-B
Sun 04:56:48 AM 58.0620 -10.2910 102° East 555 639 32,000  Level FlightAware ADS-B
Sun 04:57:32 AM 58.0320 -10.0710 104° East 553 636 32,000  Level FlightAware ADS-B
Sun 04:58:08 AM 58.0140 -9.9270 103° East 553 636 32,000  Level FlightAware ADS-B
Sun 04:58:44 AM 57.9970 -9.7830 103° East 553 636 32,000  Level FlightAware ADS-B
Sun 04:59:28 AM 57.9230 -9.5380 120° Southeast 546 628 32,000  Level FlightAware ADS-B
Sun 05:00:04 AM 57.8970 -9.4020 110° East 546 628 32,000  Level FlightAware ADS-B
Sun 05:00:40 AM 57.8700 -9.2650 110° East 546 628 32,000 857 Level FlightAware ADS-B
Sun 05:01:14 AM 57.8681 -8.9682 110° East 502 578 33,000  Climbing FlightAware UK
Sun 05:01:17 AM 57.8430 -9.1250 110° East 546 628 32,000 -1,538 Descending FlightAware ADS-B
Sun 05:01:53 AM 57.8170 -8.9880 110° East 546 628 32,000 659 Level FlightAware ADS-B
Sun 05:02:24 AM 57.8720 -8.6840 71° East 33,000 1,091 Climbing FlightAware ADS-B
Sun 05:02:48 AM 57.8650 -8.5500 96° East 557 641 33,000  Level FlightAware ADS-B
Sun 05:03:31 AM 57.8560 -8.3810 96° East 557 641 33,000  Level FlightAware ADS-B
Sun 05:03:47 AM 57.8660 -8.5660 276° West 33,000  Level FlightAware ADS-B
Sun 05:04:44 AM 57.8057 -7.9551 276° West 500 575 33,000  Level FlightAware UK
Sun 05:05:09 AM 57.8250 -7.8860 276° West 562 647 33,000  Level FlightAware ADS-B
Sun 05:05:44 AM 57.7870 -7.6655 276° West 500 575 33,000  Level FlightAware UK
Sun 05:05:56 AM 57.8120 -7.6660 276° West 562 647 33,000  Level FlightAware ADS-B
Sun 05:05:57 AM 57.8160 -7.7470 275° West 124 143 33,000  Level FlightAware ADS-B
Sun 05:06:22 AM 57.8020 -7.5270 97° East 563 648 33,000  Level FlightAware ADS-B
Sun 05:06:58 AM 57.7910 -7.3440 96° East 563 648 33,000  Level FlightAware ADS-B
Sun 05:07:33 AM 57.7790 -7.1730 97° East 563 648 33,000 429 Level FlightAware ADS-B
Sun 05:08:08 AM 57.7690 -7.0170 97° East 565 650 33,500 1,114 Climbing FlightAware ADS-B
Sun 05:08:43 AM 57.7570 -6.8380 97° East 565 650 34,300 1,297 Climbing FlightAware ADS-B
Sun 05:08:45 AM 57.7270 -6.7950 97° East 496 571 34,300 938 Level FlightAware UK
Sun 05:09:15 AM 57.7166 -6.6493 97° East 498 573 34,800 1,125 Climbing FlightAware UK
Sun 05:09:17 AM 57.7450 -6.6690 97° East 568 654 34,900 300 Climbing FlightAware ADS-B
Sun 05:09:55 AM 57.7310 -6.4820 98° East 568 654 35,000 87 Climbing FlightAware ADS-B
Sun 05:10:26 AM 57.7210 -6.3440 98° East 566 651 35,000  Level FlightAware ADS-B
Sun 05:11:01 AM 57.7080 -6.1620 98° East 564 649 35,000  Level FlightAware ADS-B
Sun 05:11:37 AM 57.6950 -5.9890 98° East 563 648 35,000  Level FlightAware ADS-B
Sun 05:12:13 AM 57.6810 -5.8170 98° East 561 646 35,000  Level FlightAware ADS-B
Sun 05:12:15 AM 57.6499 -5.7794 98° East 494 568 35,000  Level FlightAware UK
Sun 05:12:45 AM 57.6383 -5.6362 98° East 496 571 35,000  Level FlightAware UK
Sun 05:12:48 AM 57.6680 -5.6510 98° East 560 644 35,000  Level FlightAware ADS-B
Sun 05:13:24 AM 57.6540 -5.4780 99° East 559 643 35,000  Level FlightAware ADS-B
Sun 05:13:57 AM 57.6098 -5.2941 99° East 494 568 35,000  Level FlightAware UK
Sun 05:13:58 AM 57.6410 -5.3140 99° East 558 642 35,000  Level FlightAware ADS-B
Sun 05:14:34 AM 57.6270 -5.1470 99° East 556 640 35,000  Level FlightAware ADS-B
Sun 05:15:08 AM 57.6130 -4.9860 99° East 553 636 35,000  Level FlightAware ADS-B
Sun 05:15:44 AM 57.5980 -4.8150 99° East 554 638 35,000  Level FlightAware ADS-B
Sun 05:16:15 AM 57.5530 -4.6430 99° East 492 566 35,000  Level FlightAware UK
Sun 05:16:18 AM 57.5850 -4.6660 99° East 554 638 35,000  Level FlightAware ADS-B
Sun 05:16:54 AM 57.5680 -4.4850 100° East 555 639 35,000  Level FlightAware ADS-B
Sun 05:17:28 AM 57.5530 -4.3240 100° East 556 640 35,000  Level FlightAware ADS-B
Sun 05:18:04 AM 57.5370 -4.1550 100° East 557 641 35,000  Level FlightAware ADS-B
Sun 05:18:38 AM 57.5210 -3.9940 100° East 556 640 35,000  Level FlightAware ADS-B
Sun 05:19:14 AM 57.5040 -3.8270 101° East 555 639 35,000  Level FlightAware ADS-B
Sun 05:19:49 AM 57.4880 -3.6670 100° East 555 639 35,000  Level FlightAware ADS-B
Sun 05:20:20 AM 57.4730 -3.5210 100° East 556 640 35,000  Level FlightAware ADS-B
Sun 05:20:21 AM 57.4397 -3.4881 100° East 494 568 35,000  Level FlightAware UK
Sun 05:20:51 AM 57.4253 -3.3477 100° East 496 571 35,000  Level FlightAware UK
Sun 05:20:55 AM 57.4550 -3.3530 100° East 556 640 35,000  Level FlightAware ADS-B
Sun 05:21:28 AM 57.4081 -3.1780 100° East 498 573 35,000  Level FlightAware UK
Sun 05:21:35 AM 57.4360 -3.1670 100° East 556 640 35,000  Level FlightAware ADS-B
Sun 05:22:05 AM 57.4210 -3.0230 101° East 555 639 35,000  Level FlightAware ADS-B
Sun 05:22:45 AM 57.4060 -2.8380 98° East 557 641 35,000  Level FlightAware ADS-B
Sun 05:23:20 AM 57.3930 -2.6690 98° East 558 642 35,000  Level FlightAware ADS-B
Sun 05:23:50 AM 57.3820 -2.5310 98° East 560 644 35,000  Level FlightAware ADS-B
Sun 05:24:30 AM 57.3670 -2.3380 98° East 561 646 35,000  Level FlightAware ADS-B
Sun 05:25:05 AM 57.3550 -2.1920 99° East 562 647 35,000  Level FlightAware ADS-B
Sun 05:25:36 AM 57.3410 -2.0190 98° East 563 648 35,000  Level FlightAware ADS-B
Sun 05:26:10 AM 57.2977 -1.8435 98° East 492 566 35,000  Level FlightAware UK
Sun 05:26:13 AM 57.3260 -1.8430 98° East 562 647 35,000  Level FlightAware ADS-B
Sun 05:26:50 AM 57.3110 -1.6690 99° East 563 648 35,000  Level FlightAware ADS-B
Sun 05:27:20 AM 57.2990 -1.5270 99° East 563 648 35,000  Level FlightAware ADS-B
Sun 05:27:56 AM 57.2840 -1.3550 99° East 563 648 35,000  Level FlightAware ADS-B
Sun 05:28:33 AM 57.2690 -1.1790 99° East 563 648 35,000  Level FlightAware ADS-B
Sun 05:29:06 AM 57.2560 -1.0340 99° East 562 647 35,000  Level FlightAware ADS-B
Sun 05:29:46 AM 57.2380 -0.8430 100° East 561 646 35,000  Level FlightAware ADS-B
Sun 05:30:22 AM 57.2220 -0.6690 100° East 563 648 35,000  Level FlightAware ADS-B
Sun 05:30:53 AM 57.2080 -0.5290 100° East 563 648 35,000  Level FlightAware ADS-B
Sun 05:31:29 AM 57.1646 -0.3364 100° East 496 571 35,000  Level FlightAware UK
Sun 05:31:30 AM 57.1900 -0.3460 100° East 564 649 35,000  Level FlightAware ADS-B
Sun 05:32:05 AM 57.1481 -0.1670 100° East 498 573 35,000  Level FlightAware UK
Sun 05:32:05 AM 57.1740 -0.1830 100° East 563 648 35,000  Level FlightAware ADS-B
Sun 05:32:35 AM 57.1343 -0.0258 100° East 498 573 35,000  Level FlightAware UK
Sun 05:32:42 AM 57.1560 -0.0090 100° East 563 648 35,000  Level FlightAware ADS-B
Sun 05:33:14 AM 57.1410 0.1460 100° East 562 647 35,000  Level FlightAware ADS-B
Sun 05:33:48 AM 57.1240 0.3070 101° East 562 647 35,000  Level FlightAware ADS-B
Sun 05:34:24 AM 57.0832 0.4827 101° East 496 571 35,000  Level FlightAware UK
Sun 05:34:25 AM 57.1060 0.4810 101° East 562 647 35,000  Level FlightAware ADS-B
Sun 05:34:58 AM 57.0900 0.6270 101° East 562 647 35,000  Level FlightAware ADS-B
Sun 05:35:30 AM 57.0514 0.7911 101° East 496 571 35,000  Level FlightAware UK
Sun 05:35:35 AM 57.0720 0.7980 101° East 562 647 35,000  Level FlightAware ADS-B
Sun 05:36:09 AM 57.0550 0.9560 101° East 563 648 35,000  Level FlightAware ADS-B
Sun 05:36:42 AM 57.0152 1.1294 101° East 496 571 35,000  Level FlightAware UK
Sun 05:36:44 AM 57.0370 1.1160 101° East 562 647 35,000  Level FlightAware ADS-B
Sun 05:37:19 AM 57.0190 1.2780 101° East 562 647 35,000  Level FlightAware ADS-B
Sun 05:37:54 AM 57.0000 1.4450 102° East 561 646 35,000  Level FlightAware ADS-B
Sun 05:38:24 AM 56.9830 1.5930 102° East 561 646 35,000  Level FlightAware ADS-B
Sun 05:39:04 AM 56.9620 1.7720 102° East 560 644 35,000  Level FlightAware ADS-B
Sun 05:39:40 AM 56.9420 1.9390 102° East 559 643 35,000  Level FlightAware ADS-B
Sun 05:40:14 AM 56.9230 2.1010 102° East 560 644 35,000  Level FlightAware ADS-B
Sun 05:40:47 AM 56.9040 2.2570 103° East 559 643 35,000  Level FlightAware ADS-B
Sun 05:41:24 AM 56.8830 2.4250 103° East 558 642 35,000  Level FlightAware ADS-B
Sun 05:41:59 AM 56.8640 2.5850 102° East 557 641 35,000  Level FlightAware ADS-B
Sun 05:42:29 AM 56.8470 2.7160 102° East 556 640 35,000  Level FlightAware ADS-B
Sun 05:42:31 AM 56.8293 2.7434 102° East 496 571 35,000  Level FlightAware UK
Sun 05:43:01 AM 56.8063 2.8780 102° East 496 571 35,000  Level FlightAware UK
Sun 05:43:04 AM 56.8180 2.8820 102° East 557 641 35,000  Level FlightAware ADS-B
Sun 05:43:37 AM 56.7710 3.0060 125° Southeast 556 640 35,000  Level FlightAware ADS-B
Sun 05:44:07 AM 56.7260 3.1190 126° Southeast 556 640 35,000  Level FlightAware ADS-B
Sun 05:44:37 AM 56.6643 3.2445 126° Southeast 496 571 35,000  Level FlightAware UK
Sun 05:44:48 AM 56.6620 3.2730 126° Southeast 555 639 35,000  Level FlightAware ADS-B
Sun 05:45:23 AM 56.6060 3.4020 128° Southeast 556 640 35,000  Level FlightAware ADS-B
Sun 05:45:55 AM 56.5425 3.5318 128° Southeast 496 571 35,000  Level FlightAware UK
Sun 05:45:56 AM 56.5550 3.5220 128° Southeast 556 640 35,000  Level FlightAware ADS-B
Sun 05:46:32 AM 56.4990 3.6550 127° Southeast 556 640 35,000  Level FlightAware ADS-B
Sun 05:47:07 AM 56.4312 3.7979 127° Southeast 496 571 35,000  Level FlightAware UK
Sun 05:47:09 AM 56.4410 3.7930 127° Southeast 556 640 35,000  Level FlightAware ADS-B
Sun 05:47:44 AM 56.3870 3.9190 128° Southeast 556 640 35,000  Level FlightAware ADS-B
Sun 05:48:17 AM 56.3350 4.0430 127° Southeast 556 640 35,000  Level FlightAware ADS-B
Sun 05:48:53 AM 56.2790 4.1750 127° Southeast 555 639 35,000  Level FlightAware ADS-B
Sun 05:49:25 AM 56.2167 4.3062 127° Southeast 496 571 35,000  Level FlightAware UK
Sun 05:49:30 AM 56.2210 4.3100 127° Southeast 555 639 35,000  Level FlightAware ADS-B
Sun 05:50:01 AM 56.1604 4.4377 127° Southeast 496 571 35,000  Level FlightAware UK
Sun 05:50:01 AM 56.1730 4.4210 127° Southeast 555 639 35,000  Level FlightAware ADS-B
Sun 05:50:37 AM 56.1160 4.5540 128° Southeast 555 639 35,000  Level FlightAware ADS-B
Sun 05:51:07 AM 56.0579 4.6777 128° Southeast 500 575 35,000  Level FlightAware UK
Sun 05:51:14 AM 56.0580 4.6880 128° Southeast 554 638 35,000  Level FlightAware ADS-B
Sun 05:51:49 AM 56.0090 4.8010 128° Southeast 553 636 35,000  Level FlightAware ADS-B
Sun 05:52:21 AM 55.9540 4.9260 128° Southeast 552 635 35,000  Level FlightAware ADS-B
Sun 05:52:54 AM 55.9070 5.0340 128° Southeast 553 636 35,000  Level FlightAware ADS-B
Sun 05:53:34 AM 55.8460 5.1710 128° Southeast 552 635 35,000  Level FlightAware ADS-B
Sun 05:54:04 AM 55.7970 5.2820 128° Southeast 552 635 35,000  Level FlightAware ADS-B
Sun 05:54:44 AM 55.7330 5.4260 128° Southeast 547 629 35,000  Level FlightAware ADS-B
Sun 05:55:19 AM 55.6790 5.5460 129° Southeast 546 628 35,000  Level FlightAware ADS-B
Sun 05:55:59 AM 55.6070 5.7060 129° Southeast 550 633 35,000  Level FlightAware ADS-B
Sun 05:56:33 AM 55.5560 5.8190 129° Southeast 550 633 35,000  Level FlightAware ADS-B
Sun 05:57:09 AM 55.4960 5.9520 129° Southeast 549 632 35,000  Level FlightAware ADS-B
Sun 05:57:45 AM 55.4410 6.0720 129° Southeast 550 633 35,000  Level FlightAware ADS-B
Sun 05:58:17 AM 55.3910 6.1810 129° Southeast 551 634 35,000  Level FlightAware ADS-B
Sun 05:58:55 AM 55.3270 6.3190 129° Southeast 550 633 35,000  Level FlightAware ADS-B
Sun 05:59:30 AM 55.2750 6.4320 129° Southeast 550 633 35,000  Level FlightAware ADS-B
Sun 06:00:03 AM 55.2200 6.5490 129° Southeast 548 631 35,000  Level FlightAware ADS-B
Sun 06:00:38 AM 55.1546 6.6870 129° Southeast 1 1 35,000  Level FlightAware UK
Sun 06:00:39 AM 55.1610 6.6750 129° Southeast 547 629 35,000  Level FlightAware ADS-B
Sun 06:01:14 AM 55.0971 6.8097 129° Southeast 1 1 35,000  Level FlightAware UK
Sun 06:01:16 AM 55.1050 6.7950 129° Southeast 547 629 35,000  Level FlightAware ADS-B
Sun 06:01:52 AM 55.0430 6.9280 129° Southeast 546 628 35,000  Level FlightAware ADS-B
Sun 06:02:24 AM 54.9930 7.0330 130° Southeast 546 628 35,000  Level FlightAware ADS-B
Sun 06:03:00 AM 54.9350 7.1550 130° Southeast 546 628 35,000  Level FlightAware ADS-B
Sun 06:03:35 AM 54.8800 7.2690 130° Southeast 546 628 35,000  Level FlightAware ADS-B
Sun 06:04:12 AM 54.8200 7.3950 130° Southeast 545 627 35,000  Level FlightAware ADS-B
Sun 06:04:44 AM 54.7690 7.5020 130° Southeast 544 626 35,000  Level FlightAware ADS-B
Sun 06:05:19 AM 54.7120 7.6210 130° Southeast 544 626 35,000  Level FlightAware ADS-B
Sun 06:05:56 AM 54.6520 7.7470 129° Southeast 544 626 35,000  Level FlightAware ADS-B
Sun 06:06:28 AM 54.6010 7.8540 129° Southeast 543 625 35,000  Level FlightAware ADS-B
Sun 06:07:12 AM 54.5330 7.9930 130° Southeast 543 625 35,000  Level FlightAware ADS-B
Sun 06:07:44 AM 54.4800 8.1020 130° Southeast 542 624 35,000  Level FlightAware ADS-B
Sun 06:08:22 AM 54.4160 8.2310 130° Southeast 541 623 35,000  Level FlightAware ADS-B
Sun 06:08:57 AM 54.3620 8.3390 131° Southeast 541 623 35,000  Level FlightAware ADS-B
Sun 06:09:34 AM 54.3040 8.4570 130° Southeast 540 621 35,000  Level FlightAware ADS-B
Sun 06:10:05 AM 54.2530 8.5580 131° Southeast 541 623 35,000  Level FlightAware ADS-B
Sun 06:10:41 AM 54.1920 8.6790 131° Southeast 540 621 35,000  Level FlightAware ADS-B
Sun 06:11:26 AM 54.1260 8.8080 131° Southeast 540 621 35,000  Level FlightAware ADS-B
Sun 06:11:58 AM 54.0660 8.9270 131° Southeast 540 621 35,000  Level FlightAware ADS-B
Sun 06:12:33 AM 54.0100 9.0360 131° Southeast 540 621 35,000  Level FlightAware ADS-B
Sun 06:13:08 AM 53.9510 9.1520 131° Southeast 540 621 35,000  Level FlightAware ADS-B
Sun 06:13:45 AM 53.8900 9.2710 131° Southeast 540 621 35,000  Level FlightAware ADS-B
Sun 06:14:21 AM 53.8300 9.3870 131° Southeast 539 620 35,000  Level FlightAware ADS-B
Sun 06:14:54 AM 53.7770 9.4900 131° Southeast 537 618 35,000  Level FlightAware ADS-B
Sun 06:15:30 AM 53.7170 9.6040 132° Southeast 537 618 35,000  Level FlightAware ADS-B
Sun 06:16:07 AM 53.6560 9.7200 132° Southeast 536 617 35,000  Level FlightAware ADS-B
Sun 06:16:39 AM 53.6060 9.8160 131° Southeast 536 617 35,000  Level FlightAware ADS-B
Sun 06:17:15 AM 53.5450 9.9300 132° Southeast 535 616 35,000  Level FlightAware ADS-B
Sun 06:17:49 AM 53.4890 10.0360 132° Southeast 536 617 35,000  Level FlightAware ADS-B
Sun 06:18:27 AM 53.4260 10.1520 132° Southeast 535 616 35,000  Level FlightAware ADS-B
Sun 06:18:59 AM 53.3730 10.2520 132° Southeast 535 616 35,000  Level FlightAware ADS-B
Sun 06:19:34 AM 53.3160 10.3570 132° Southeast 533 613 35,000  Level FlightAware ADS-B
Sun 06:20:06 AM 53.2620 10.4570 132° Southeast 533 613 35,000  Level FlightAware ADS-B
Sun 06:20:47 AM 53.1940 10.5820 132° Southeast 534 615 35,000  Level FlightAware ADS-B
Sun 06:21:20 AM 53.1400 10.6810 132° Southeast 535 616 35,000  Level FlightAware ADS-B
Sun 06:21:56 AM 53.0800 10.7920 132° Southeast 535 616 35,000  Level FlightAware ADS-B
Sun 06:22:31 AM 53.0230 10.8960 132° Southeast 535 616 35,000  Level FlightAware ADS-B
Sun 06:23:03 AM 52.9680 10.9950 133° Southeast 534 615 35,000  Level FlightAware ADS-B
Sun 06:23:39 AM 52.9080 11.1030 133° Southeast 535 616 35,000  Level FlightAware ADS-B
Sun 06:24:16 AM 52.8470 11.2130 133° Southeast 535 616 35,000  Level FlightAware ADS-B
Sun 06:24:52 AM 52.7870 11.3210 133° Southeast 534 615 35,000  Level FlightAware ADS-B
Sun 06:25:23 AM 52.7350 11.4140 133° Southeast 535 616 35,000  Level FlightAware ADS-B
Sun 06:25:59 AM 52.6720 11.5250 133° Southeast 535 616 35,000  Level FlightAware ADS-B
Sun 06:26:36 AM 52.6110 11.6330 133° Southeast 536 617 35,000  Level FlightAware ADS-B
Sun 06:27:11 AM 52.5530 11.7350 133° Southeast 537 618 35,000  Level FlightAware ADS-B
Sun 06:27:44 AM 52.4960 11.8350 133° Southeast 538 619 35,000  Level FlightAware ADS-B
Sun 06:28:18 AM 52.4390 11.9330 134° Southeast 538 619 35,000  Level FlightAware ADS-B
Sun 06:28:57 AM 52.3710 12.0520 133° Southeast 539 620 35,000  Level FlightAware ADS-B
Sun 06:29:27 AM 52.3200 12.1400 133° Southeast 539 620 35,000  Level FlightAware ADS-B
Sun 06:30:04 AM 52.2580 12.2460 134° Southeast 539 620 35,000  Level FlightAware ADS-B
Sun 06:30:41 AM 52.1940 12.3550 134° Southeast 540 621 35,000  Level FlightAware ADS-B
Sun 06:31:14 AM 52.1380 12.4510 134° Southeast 541 623 35,000  Level FlightAware ADS-B
Sun 06:31:48 AM 52.0780 12.5530 134° Southeast 541 623 35,000  Level FlightAware ADS-B
Sun 06:32:25 AM 52.0160 12.6590 134° Southeast 543 625 35,000  Level FlightAware ADS-B
Sun 06:33:02 AM 51.9480 12.7720 134° Southeast 543 625 35,000  Level FlightAware ADS-B
Sun 06:33:32 AM 51.8960 12.8590 134° Southeast 543 625 35,000  Level FlightAware ADS-B
Sun 06:34:09 AM 51.8330 12.9650 134° Southeast 543 625 35,000  Level FlightAware ADS-B
Sun 06:34:46 AM 51.7690 13.0700 135° Southeast 543 625 35,000  Level FlightAware ADS-B
Sun 06:35:21 AM 51.7070 13.1730 134° Southeast 543 625 35,000  Level FlightAware ADS-B
Sun 06:35:53 AM 51.6520 13.2650 134° Southeast 543 625 35,000  Level FlightAware ADS-B
Sun 06:36:30 AM 51.5850 13.3760 134° Southeast 543 625 35,000  Level FlightAware ADS-B
Sun 06:37:07 AM 51.5240 13.4760 134° Southeast 543 625 35,000  Level FlightAware ADS-B
Sun 06:37:38 AM 51.4680 13.5690 134° Southeast 543 625 35,000  Level FlightAware ADS-B
Sun 06:38:15 AM 51.4050 13.6690 135° Southeast 543 625 35,000  Level FlightAware ADS-B
Sun 06:38:49 AM 51.3450 13.7670 134° Southeast 543 625 35,000  Level FlightAware ADS-B
Sun 06:39:27 AM 51.2770 13.8740 135° Southeast 541 623 35,000  Level FlightAware ADS-B
Sun 06:39:59 AM 51.2170 13.9680 136° Southeast 540 621 35,000  Level FlightAware ADS-B
Sun 06:40:34 AM 51.1580 14.0620 135° Southeast 540 621 35,000  Level FlightAware ADS-B
Sun 06:41:04 AM 51.1040 14.1460 136° Southeast 540 621 35,000  Level FlightAware ADS-B
Sun 06:41:45 AM 51.0270 14.2560 138° Southeast 540 621 35,000  Level FlightAware ADS-B
Sun 06:42:20 AM 50.9600 14.3520 138° Southeast 541 623 35,000  Level FlightAware ADS-B
Sun 06:42:57 AM 50.8920 14.4490 138° Southeast 541 623 35,000  Level FlightAware ADS-B
Sun 06:43:28 AM 50.8360 14.5310 137° Southeast 542 624 35,000  Level FlightAware ADS-B
Sun 06:44:04 AM 50.7710 14.6240 138° Southeast 542 624 35,000  Level FlightAware ADS-B
Sun 06:44:39 AM 50.7050 14.7180 138° Southeast 544 626 35,000  Level FlightAware ADS-B
Sun 06:45:15 AM 50.6340 14.8180 138° Southeast 544 626 35,000  Level FlightAware ADS-B
Sun 06:45:46 AM 50.5750 14.9020 138° Southeast 543 625 35,000  Level FlightAware ADS-B
Sun 06:46:25 AM 50.5040 15.0020 138° Southeast 543 625 35,000  Level FlightAware ADS-B
Sun 06:47:00 AM 50.4380 15.0940 138° Southeast 543 625 35,000  Level FlightAware ADS-B
Sun 06:47:36 AM 50.3720 15.1870 138° Southeast 544 626 35,000  Level FlightAware ADS-B
Sun 06:48:09 AM 50.3070 15.2770 138° Southeast 544 626 35,000  Level FlightAware ADS-B
Sun 06:48:43 AM 50.2420 15.3670 138° Southeast 544 626 35,000  Level FlightAware ADS-B
Sun 06:49:22 AM 50.1690 15.4680 138° Southeast 544 626 35,000  Level FlightAware ADS-B
Sun 06:49:51 AM 50.1160 15.5390 139° Southeast 544 626 35,000  Level FlightAware ADS-B
Sun 06:50:30 AM 50.0420 15.6410 138° Southeast 543 625 35,000  Level FlightAware ADS-B
Sun 06:51:05 AM 49.9770 15.7300 139° Southeast 543 625 35,000  Level FlightAware ADS-B
Sun 06:51:38 AM 49.9170 15.8110 139° Southeast 544 626 35,000  Level FlightAware ADS-B
Sun 06:52:14 AM 49.8450 15.9070 139° Southeast 544 626 35,000  Level FlightAware ADS-B
Sun 06:52:46 AM 49.7840 15.9880 139° Southeast 544 626 35,000  Level FlightAware ADS-B
Sun 06:53:26 AM 49.7100 16.0870 139° Southeast 543 625 35,000  Level FlightAware ADS-B
Sun 06:54:02 AM 49.6400 16.1800 139° Southeast 542 624 35,000  Level FlightAware ADS-B
Sun 06:54:34 AM 49.5780 16.2610 140° Southeast 542 624 35,000  Level FlightAware ADS-B
Sun 06:55:10 AM 49.5100 16.3490 140° Southeast 542 624 35,000  Level FlightAware ADS-B
Sun 06:55:45 AM 49.4440 16.4360 139° Southeast 541 623 35,000  Level FlightAware ADS-B
Sun 06:56:20 AM 49.3760 16.5240 140° Southeast 539 620 35,000  Level FlightAware ADS-B
Sun 06:56:55 AM 49.3110 16.6090 140° Southeast 538 619 35,000  Level FlightAware ADS-B
Sun 06:57:26 AM 49.2510 16.6870 140° Southeast 536 617 35,000  Level FlightAware ADS-B
Sun 06:58:07 AM 49.1720 16.7900 140° Southeast 533 613 35,000  Level FlightAware ADS-B (KSBY)
Sun 06:58:39 AM 49.1110 16.8680 140° Southeast 532 612 35,000  Level FlightAware ADS-B (KSBY)
Sun 06:59:11 AM 49.0520 16.9450 139° Southeast 530 610 35,000  Level FlightAware ADS-B (KSBY)
Sun 06:59:51 AM 48.9770 17.0410 140° Southeast 529 609 35,000  Level FlightAware ADS-B (KSBY)
Sun 07:00:32 AM 48.9040 17.1340 140° Southeast 521 600 35,000  Level FlightAware ADS-B
Sun 07:01:06 AM 48.8450 17.2170 137° Southeast 520 598 35,000  Level FlightAware ADS-B
Sun 07:01:48 AM 48.7720 17.3330 134° Southeast 518 596 35,000  Level FlightAware ADS-B
Sun 07:02:24 AM 48.7120 17.4280 134° Southeast 517 595 35,000  Level FlightAware ADS-B
Sun 07:02:58 AM 48.6520 17.5170 136° Southeast 521 600 35,000  Level FlightAware ADS-B
Sun 07:03:34 AM 48.5830 17.5950 143° Southeast 535 616 35,000  Level FlightAware ADS-B
Sun 07:04:10 AM 48.5090 17.6620 149° Southeast 536 617 35,000  Level FlightAware ADS-B
Sun 07:04:42 AM 48.4370 17.7260 149° Southeast 536 617 35,000  Level FlightAware ADS-B
Sun 07:05:19 AM 48.3650 17.7910 149° Southeast 536 617 35,000  Level FlightAware ADS-B
Sun 07:05:54 AM 48.2850 17.8610 150° Southeast 535 616 35,000  Level FlightAware ADS-B
Sun 07:06:31 AM 48.2070 17.9300 149° Southeast 536 617 35,000  Level FlightAware ADS-B
Sun 07:07:11 AM 48.1230 18.0040 150° Southeast 538 619 35,000  Level FlightAware ADS-B
Sun 07:07:41 AM 48.0580 18.0620 149° Southeast 538 619 35,000  Level FlightAware ADS-B
Sun 07:08:20 AM 47.9770 18.1330 150° Southeast 538 619 35,000  Level FlightAware ADS-B
Sun 07:09:02 AM 47.8860 18.2130 149° Southeast 535 616 35,000  Level FlightAware ADS-B (KSBY)
Sun 07:09:39 AM 47.8040 18.2840 150° Southeast 535 616 35,000  Level FlightAware ADS-B (KSBY)
Sun 07:10:11 AM 47.7370 18.3390 151° Southeast 539 620 35,000  Level FlightAware ADS-B (KSBY)
Sun 07:10:55 AM 47.6340 18.4130 154° Southeast 541 623 35,000 400 Level FlightAware ADS-B (KSBY)
Sun 07:11:26 AM 47.5640 18.4620 155° Southeast 546 628 35,500 1,147 Climbing FlightAware ADS-B
Sun 07:12:03 AM 47.4790 18.5210 155° Southeast 546 628 36,300 1,147 Climbing FlightAware ADS-B
Sun 07:12:34 AM 47.4110 18.5680 155° Southeast 548 631 36,800 646 Climbing FlightAware ADS-B
Sun 07:13:08 AM 47.3300 18.6230 155° Southeast 550 633 37,000 164 Climbing FlightAware ADS-B
Sun 07:13:47 AM 47.2410 18.6840 155° Southeast 548 631 37,000  Level FlightAware ADS-B
Sun 07:14:22 AM 47.1610 18.7430 153° Southeast 539 620 37,000  Level FlightAware ADS-B
Sun 07:14:54 AM 47.0950 18.8030 148° Southeast 531 611 37,000  Level FlightAware ADS-B
Sun 07:15:31 AM 47.0170 18.8800 146° Southeast 530 610 37,000  Level FlightAware ADS-B
Sun 07:16:07 AM 46.9470 18.9500 146° Southeast 529 609 37,000  Level FlightAware ADS-B
Sun 07:16:43 AM 46.8750 19.0220 146° Southeast 527 606 37,000  Level FlightAware ADS-B
Sun 07:17:14 AM 46.8120 19.0850 146° Southeast 527 606 37,000  Level FlightAware ADS-B
Sun 07:17:46 AM 46.7460 19.1500 146° Southeast 525 604 37,000  Level FlightAware ADS-B
Sun 07:18:25 AM 46.6700 19.2250 146° Southeast 526 605 37,000  Level FlightAware ADS-B
Sun 07:19:02 AM 46.5940 19.3010 145° Southeast 527 606 37,000  Level FlightAware ADS-B
Sun 07:19:41 AM 46.5170 19.3750 147° Southeast 528 608 37,000  Level FlightAware ADS-B
Sun 07:20:16 AM 46.4480 19.4420 146° Southeast 529 609 37,000  Level FlightAware ADS-B
Sun 07:20:55 AM 46.3660 19.5240 145° Southeast 530 610 37,000  Level FlightAware ADS-B
Sun 07:21:27 AM 46.2990 19.5880 147° Southeast 530 610 37,000  Level FlightAware ADS-B
Sun 07:21:58 AM 46.2370 19.6470 147° Southeast 533 613 37,000  Level FlightAware ADS-B
Sun 07:22:39 AM 46.1480 19.7210 150° Southeast 541 623 37,000  Level FlightAware ADS-B
Sun 07:23:14 AM 46.0670 19.7790 154° Southeast 544 626 37,000  Level FlightAware ADS-B
Sun 07:23:47 AM 45.9940 19.8290 155° Southeast 544 626 37,000  Level FlightAware ADS-B
Sun 07:24:23 AM 45.9110 19.8870 154° Southeast 543 625 37,000  Level FlightAware ADS-B
Sun 07:24:59 AM 45.8300 19.9430 154° Southeast 542 624 37,000  Level FlightAware ADS-B
Sun 07:25:33 AM 45.7540 19.9960 154° Southeast 540 621 37,000  Level FlightAware ADS-B
Sun 07:26:09 AM 45.6760 20.0500 154° Southeast 538 619 37,000  Level FlightAware ADS-B
Sun 07:26:45 AM 45.5930 20.1080 154° Southeast 537 618 37,000  Level FlightAware ADS-B
Sun 07:27:17 AM 45.5230 20.1570 154° Southeast 535 616 37,000  Level FlightAware ADS-B
Sun 07:27:53 AM 45.4420 20.2140 154° Southeast 535 616 37,000  Level FlightAware ADS-B
Sun 07:28:31 AM 45.3590 20.2710 154° Southeast 534 615 37,000  Level FlightAware ADS-B
Sun 07:29:09 AM 45.2730 20.3300 154° Southeast 532 612 37,000  Level FlightAware ADS-B
Sun 07:29:39 AM 45.2060 20.3760 154° Southeast 531 611 37,000  Level FlightAware ADS-B
Sun 07:30:21 AM 45.1150 20.4380 154° Southeast 530 610 37,000  Level FlightAware ADS-B
Sun 07:30:53 AM 45.0430 20.4870 154° Southeast 529 609 37,000  Level FlightAware ADS-B
Sun 07:31:29 AM 44.9630 20.5410 154° Southeast 530 610 37,000  Level FlightAware ADS-B
Sun 07:31:57 AM 44.9010 20.5840 154° Southeast 530 610 37,000  Level FlightAware ADS-B
Sun 07:32:33 AM 44.8210 20.6370 155° Southeast 530 610 37,000  Level FlightAware ADS-B
Sun 07:33:09 AM 44.7420 20.6910 154° Southeast 529 609 37,000  Level FlightAware ADS-B
Sun 07:33:45 AM 44.6630 20.7440 154° Southeast 528 608 37,000  Level FlightAware ADS-B
Sun 07:34:17 AM 44.5910 20.7930 154° Southeast 527 606 37,000  Level FlightAware ADS-B
Sun 07:34:55 AM 44.5080 20.8490 154° Southeast 526 605 37,000  Level FlightAware ADS-B
Sun 07:35:31 AM 44.4290 20.9010 155° Southeast 526 605 37,000  Level FlightAware ADS-B
Sun 07:36:03 AM 44.3590 20.9480 154° Southeast 525 604 37,000  Level FlightAware ADS-B
Sun 07:36:39 AM 44.2800 21.0000 155° Southeast 523 602 37,000  Level FlightAware ADS-B
Sun 07:37:13 AM 44.2050 21.0500 154° Southeast 521 600 37,000  Level FlightAware ADS-B
Sun 07:37:47 AM 44.1330 21.0980 154° Southeast 518 596 37,000  Level FlightAware ADS-B
Sun 07:38:25 AM 44.0490 21.1530 155° Southeast 517 595 37,000  Level FlightAware ADS-B
Sun 07:38:57 AM 43.9800 21.1980 155° Southeast 516 594 37,000  Level FlightAware ADS-B
Sun 07:39:33 AM 43.9020 21.2500 154° Southeast 514 592 37,000  Level FlightAware ADS-B
Sun 07:40:09 AM 43.8260 21.3000 155° Southeast 513 590 37,000  Level FlightAware ADS-B
Sun 07:40:45 AM 43.7480 21.3520 154° Southeast 512 589 37,000  Level FlightAware ADS-B
Sun 07:41:17 AM 43.6800 21.3960 155° Southeast 512 589 37,000  Level FlightAware ADS-B
Sun 07:41:53 AM 43.6020 21.4460 155° Southeast 512 589 37,000  Level FlightAware ADS-B
Sun 07:42:29 AM 43.5270 21.4950 155° Southeast 512 589 37,000  Level FlightAware ADS-B
Sun 07:43:03 AM 43.4520 21.5420 156° South 511 588 37,000  Level FlightAware ADS-B
Sun 07:43:39 AM 43.3750 21.5920 155° Southeast 511 588 37,000  Level FlightAware ADS-B
Sun 07:44:15 AM 43.2970 21.6420 155° Southeast 511 588 37,000  Level FlightAware ADS-B
Sun 07:44:47 AM 43.2280 21.6860 155° Southeast 510 587 37,000  Level FlightAware ADS-B
Sun 07:45:23 AM 43.1520 21.7350 155° Southeast 511 588 37,000  Level FlightAware ADS-B
Sun 07:45:59 AM 43.0750 21.7840 155° Southeast 512 589 37,000  Level FlightAware ADS-B
Sun 07:46:35 AM 42.9980 21.8330 155° Southeast 512 589 37,000  Level FlightAware ADS-B
Sun 07:47:07 AM 42.9280 21.8770 155° Southeast 513 590 37,000  Level FlightAware ADS-B
Sun 07:47:43 AM 42.8510 21.9250 155° Southeast 514 592 37,000  Level FlightAware ADS-B
Sun 07:48:19 AM 42.7730 21.9740 155° Southeast 515 593 37,000  Level FlightAware ADS-B
Sun 07:48:53 AM 42.6990 22.0210 155° Southeast 516 594 37,000  Level FlightAware ADS-B
Sun 07:49:28 AM 42.6290 22.0650 155° Southeast 516 594 37,000  Level FlightAware ADS-B
Sun 07:50:04 AM 42.5460 22.1130 157° South 515 593 37,000  Level FlightAware ADS-B
Sun 07:50:40 AM 42.4600 22.1420 166° South 515 593 37,000  Level FlightAware ADS-B
Sun 07:51:14 AM 42.3810 22.1680 166° South 515 593 37,000  Level FlightAware ADS-B
Sun 07:51:50 AM 42.2980 22.1960 166° South 515 593 37,000  Level FlightAware ADS-B
Sun 07:52:22 AM 42.2240 22.2170 168° South 514 592 37,000  Level FlightAware ADS-B
Sun 07:52:59 AM 42.1390 22.2420 168° South 513 590 37,000  Level FlightAware ADS-B
Sun 07:53:35 AM 42.0540 22.2680 167° South 513 590 37,000  Level FlightAware ADS-B
Sun 07:54:07 AM 41.9800 22.2900 168° South 513 590 37,000  Level FlightAware ADS-B
Sun 07:54:43 AM 41.8950 22.3150 168° South 510 587 37,000  Level FlightAware ADS-B
Sun 07:55:19 AM 41.8120 22.3400 167° South 509 586 37,000  Level FlightAware ADS-B
Sun 07:55:55 AM 41.7300 22.3640 168° South 509 586 37,000  Level FlightAware ADS-B
Sun 07:56:27 AM 41.6590 22.3840 168° South 510 587 37,000  Level FlightAware ADS-B
Sun 07:57:05 AM 41.5700 22.4100 168° South 510 587 37,000  Level FlightAware ADS-B
Sun 07:57:41 AM 41.4850 22.4350 168° South 511 588 37,000  Level FlightAware ADS-B
Sun 07:58:13 AM 41.4110 22.4560 168° South 511 588 37,000  Level FlightAware ADS-B
Sun 07:58:47 AM 41.3310 22.4790 168° South 510 587 37,000  Level FlightAware ADS-B
Sun 07:59:21 AM 41.2560 22.5010 168° South 508 585 37,000  Level FlightAware ADS-B
Sun 07:59:59 AM 41.1690 22.5280 167° South 508 585 37,000  Level FlightAware ADS-B
Sun 08:00:35 AM 41.0910 22.5730 156° South 511 588 37,000  Level FlightAware ADS-B
Sun 08:01:16 AM 41.0030 22.6360 152° Southeast 512 589 37,000  Level FlightAware ADS-B
Sun 08:01:52 AM 40.9290 22.6930 150° Southeast 512 589 37,000  Level FlightAware ADS-B
Sun 08:02:24 AM 40.8650 22.7430 149° Southeast 513 590 37,000  Level FlightAware ADS-B
Sun 08:03:02 AM 40.7890 22.8030 149° Southeast 514 592 37,000  Level FlightAware ADS-B
Sun 08:03:38 AM 40.7160 22.8640 148° Southeast 515 593 37,000  Level FlightAware ADS-B
Sun 08:04:10 AM 40.6500 22.9180 148° Southeast 515 593 37,000  Level FlightAware ADS-B
Sun 08:04:46 AM 40.5770 22.9770 148° Southeast 515 593 37,000  Level FlightAware ADS-B
Sun 08:05:22 AM 40.5050 23.0330 149° Southeast 515 593 37,000  Level FlightAware ADS-B
Sun 08:05:54 AM 40.4400 23.0830 150° Southeast 514 592 37,000  Level FlightAware ADS-B
Sun 08:06:31 AM 40.3630 23.1410 150° Southeast 515 593 37,000  Level FlightAware ADS-B
Sun 08:07:07 AM 40.2880 23.1970 150° Southeast 515 593 37,000  Level FlightAware ADS-B
Sun 08:07:42 AM 40.2160 23.2510 150° Southeast 515 593 37,000  Level FlightAware ADS-B
Sun 08:08:14 AM 40.1470 23.3020 151° Southeast 516 594 37,000  Level FlightAware ADS-B
Sun 08:08:50 AM 40.0730 23.3570 150° Southeast 516 594 37,000  Level FlightAware ADS-B
Sun 08:09:24 AM 40.0050 23.4090 150° Southeast 516 594 37,000  Level FlightAware ADS-B
Sun 08:10:16 AM 39.8950 23.4910 150° Southeast 516 594 37,000  Level FlightAware ADS-B
Sun 08:10:50 AM 39.8230 23.5450 150° Southeast 514 592 37,000  Level FlightAware ADS-B
Sun 08:11:22 AM 39.7580 23.5930 150° Southeast 514 592 37,000  Level FlightAware ADS-B
Sun 08:12:01 AM 39.6790 23.6520 150° Southeast 514 592 37,000  Level FlightAware ADS-B
Sun 08:12:33 AM 39.6110 23.7030 150° Southeast 514 592 37,000  Level FlightAware ADS-B
Sun 08:13:09 AM 39.5390 23.7560 150° Southeast 512 589 37,000  Level FlightAware ADS-B
Sun 08:13:46 AM 39.4620 23.8130 150° Southeast 512 589 37,000  Level FlightAware ADS-B
Sun 08:14:20 AM 39.3910 23.8660 150° Southeast 512 589 37,000  Level FlightAware ADS-B
Sun 08:14:53 AM 39.3230 23.9160 150° Southeast 512 589 37,000  Level FlightAware ADS-B
Sun 08:15:29 AM 39.2580 23.9630 151° Southeast 505 581 37,000  Level FlightAware ADS-B
Sun 08:16:03 AM 39.1810 24.0200 150° Southeast 511 588 37,000  Level FlightAware ADS-B
Sun 08:16:39 AM 39.1040 24.0760 151° Southeast 511 588 37,000  Level FlightAware ADS-B
Sun 08:17:17 AM 39.0250 24.1330 151° Southeast 513 590 37,000  Level FlightAware ADS-B
Sun 08:17:49 AM 38.9620 24.1790 150° Southeast 514 592 37,000  Level FlightAware ADS-B
Sun 08:18:25 AM 38.8850 24.2350 150° Southeast 515 593 37,000  Level FlightAware ADS-B
Sun 08:18:59 AM 38.8140 24.2860 151° Southeast 516 594 37,000  Level FlightAware ADS-B
Sun 08:19:35 AM 38.7410 24.3400 150° Southeast 518 596 37,000  Level FlightAware ADS-B
Sun 08:20:11 AM 38.6660 24.3940 151° Southeast 516 594 37,000  Level FlightAware ADS-B
Sun 08:20:43 AM 38.5980 24.4430 151° Southeast 515 593 37,000  Level FlightAware ADS-B
Sun 08:21:21 AM 38.5200 24.4980 151° Southeast 514 592 37,000  Level FlightAware ADS-B
Sun 08:21:55 AM 38.4480 24.5490 151° Southeast 514 592 37,000  Level FlightAware ADS-B
Sun 08:22:35 AM 38.3690 24.6050 151° Southeast 515 593 37,000  Level FlightAware ADS-B
Sun 08:23:13 AM 38.2850 24.6650 151° Southeast 514 592 37,000  Level FlightAware ADS-B
Sun 08:23:46 AM 38.2180 24.7120 151° Southeast 515 593 37,000  Level FlightAware ADS-B
Sun 08:24:22 AM 38.1450 24.7630 151° Southeast 514 592 37,000  Level FlightAware ADS-B
Sun 08:24:59 AM 38.0650 24.8200 151° Southeast 515 593 37,000  Level FlightAware ADS-B
Sun 08:25:25 AM 38.0100 24.8610 150° Southeast 520 598 37,000  Level FlightAware ADS-B
Sun 08:25:55 AM 37.9550 24.9190 140° Southeast 528 608 37,000  Level FlightAware ADS-B
Sun 08:26:34 AM 37.8930 25.0120 130° Southeast 534 615 37,000  Level FlightAware ADS-B
Sun 08:27:09 AM 37.8400 25.0980 128° Southeast 535 616 37,000  Level FlightAware ADS-B
Sun 08:27:46 AM 37.7840 25.1880 128° Southeast 535 616 37,000  Level FlightAware ADS-B
Sun 08:28:21 AM 37.7310 25.2740 128° Southeast 536 617 37,000  Level FlightAware ADS-B
Sun 08:28:53 AM 37.6800 25.3560 128° Southeast 537 618 37,000  Level FlightAware ADS-B
Sun 08:29:31 AM 37.6250 25.4450 128° Southeast 536 617 37,000  Level FlightAware ADS-B
Sun 08:30:07 AM 37.5680 25.5350 129° Southeast 537 618 37,000  Level FlightAware ADS-B
Sun 08:30:39 AM 37.5180 25.6140 129° Southeast 537 618 37,000  Level FlightAware ADS-B
Sun 08:31:14 AM 37.4640 25.6990 129° Southeast 537 618 37,000  Level FlightAware ADS-B
Sun 08:31:51 AM 37.4060 25.7890 129° Southeast 537 618 37,000  Level FlightAware ADS-B
Sun 08:32:23 AM 37.3560 25.8680 129° Southeast 537 618 37,000  Level FlightAware ADS-B
Sun 08:32:57 AM 37.3030 25.9520 128° Southeast 537 618 37,000  Level FlightAware ADS-B
Sun 08:33:35 AM 37.2450 26.0420 129° Southeast 535 616 37,000  Level FlightAware ADS-B
Sun 08:34:07 AM 37.1950 26.1200 129° Southeast 534 615 37,000  Level FlightAware ADS-B
Sun 08:34:47 AM 37.1320 26.2180 129° Southeast 534 615 37,000  Level FlightAware ADS-B
Sun 08:35:18 AM 37.0870 26.2890 128° Southeast 533 613 37,000  Level FlightAware ADS-B
Sun 08:35:55 AM 37.0290 26.3780 129° Southeast 533 613 37,000  Level FlightAware ADS-B
Sun 08:36:28 AM 36.9780 26.4580 129° Southeast 532 612 37,000  Level FlightAware ADS-B
Sun 08:36:58 AM 36.9300 26.5310 129° Southeast 533 613 37,000  Level FlightAware ADS-B
Sun 08:37:40 AM 36.8670 26.6290 129° Southeast 534 615 37,000  Level FlightAware ADS-B
Sun 08:38:16 AM 36.8100 26.7180 129° Southeast 536 617 37,000  Level FlightAware ADS-B
Sun 08:38:48 AM 36.7600 26.7940 129° Southeast 536 617 37,000  Level FlightAware ADS-B
Sun 08:39:26 AM 36.7000 26.8870 129° Southeast 537 618 37,000  Level FlightAware ADS-B
Sun 08:39:58 AM 36.6490 26.9640 130° Southeast 538 619 37,000  Level FlightAware ADS-B
Sun 08:40:35 AM 36.5920 27.0510 129° Southeast 538 619 37,000  Level FlightAware ADS-B
Sun 08:41:12 AM 36.5410 27.1300 129° Southeast 538 619 37,000  Level FlightAware ADS-B
Sun 08:41:47 AM 36.4770 27.2260 130° Southeast 538 619 37,000  Level FlightAware ADS-B
Sun 08:42:17 AM 36.4310 27.2960 129° Southeast 539 620 37,000  Level FlightAware ADS-B
Sun 08:42:55 AM 36.3710 27.3880 129° Southeast 540 621 37,000  Level FlightAware ADS-B
Sun 08:43:31 AM 36.3120 27.4760 130° Southeast 540 621 37,000  Level FlightAware ADS-B
Sun 08:44:12 AM 36.2490 27.5710 129° Southeast 542 624 37,000  Level FlightAware ADS-B
Sun 08:44:48 AM 36.1900 27.6590 130° Southeast 542 624 37,000  Level FlightAware ADS-B
Sun 08:45:24 AM 36.1330 27.7460 129° Southeast 544 626 37,000  Level FlightAware ADS-B
Sun 08:46:00 AM 36.0750 27.8330 130° Southeast 545 627 37,000  Level FlightAware ADS-B
Sun 08:46:32 AM 36.0230 27.9100 130° Southeast 544 626 37,000  Level FlightAware ADS-B
Sun 08:47:08 AM 35.9660 27.9960 129° Southeast 543 625 37,000  Level FlightAware ADS-B
Sun 08:47:44 AM 35.9090 28.0810 130° Southeast 544 626 37,000  Level FlightAware ADS-B
Sun 08:48:16 AM 35.8580 28.1580 129° Southeast 544 626 37,000  Level FlightAware ADS-B
Sun 08:48:54 AM 35.7970 28.2480 130° Southeast 544 626 37,000  Level FlightAware ADS-B
Sun 08:49:30 AM 35.7390 28.3340 130° Southeast 544 626 37,000  Level FlightAware ADS-B
Sun 08:50:02 AM 35.6870 28.4110 130° Southeast 543 625 37,000  Level FlightAware ADS-B
Sun 08:50:39 AM 35.6300 28.4960 130° Southeast 541 623 37,000  Level FlightAware ADS-B
Sun 08:51:14 AM 35.5730 28.5800 130° Southeast 542 624 37,000  Level FlightAware ADS-B
Sun 08:51:46 AM 35.5200 28.6580 130° Southeast 543 625 37,000  Level FlightAware ADS-B
Sun 08:52:22 AM 35.4620 28.7430 130° Southeast 543 625 37,000  Level FlightAware ADS-B
Sun 08:53:00 AM 35.4000 28.8340 130° Southeast 543 625 37,000  Level FlightAware ADS-B
Sun 08:53:32 AM 35.3490 28.9100 129° Southeast 540 621 37,000  Level FlightAware ADS-B
Sun 08:54:08 AM 35.2920 28.9920 130° Southeast 540 621 37,000  Level FlightAware ADS-B
Sun 08:54:57 AM 35.2210 29.0960 130° Southeast 533 613 37,000  Level FlightAware ADS-B
Sun 08:55:32 AM 35.1620 29.1820 130° Southeast 534 615 37,000  Level FlightAware ADS-B
Sun 08:56:10 AM 35.0960 29.2770 130° Southeast 540 621 37,000  Level FlightAware ADS-B
Sun 08:56:51 AM 35.0380 29.3610 130° Southeast 540 621 37,000  Level FlightAware ADS-B
Sun 08:57:28 AM 34.9870 29.4350 130° Southeast 540 621 37,000  Level FlightAware ADS-B
Sun 08:58:05 AM 34.9370 29.5080 130° Southeast 540 621 37,000  Level FlightAware ADS-B
Sun 08:58:39 AM 34.8550 29.6250 130° Southeast 536 617 37,000  Level FlightAware ADS-B
Sun 08:59:14 AM 34.8030 29.6990 131° Southeast 537 618 37,000  Level FlightAware ADS-B
Sun 08:59:56 AM 34.7320 29.8010 130° Southeast 537 618 37,000  Level FlightAware ADS-B
Sun 09:00:31 AM 34.6740 29.8840 130° Southeast 537 618 37,000  Level FlightAware ADS-B
Sun 09:01:02 AM 34.6250 29.9540 130° Southeast 542 624 37,000  Level FlightAware ADS-B
Sun 09:01:37 AM 34.5780 30.0320 126° Southeast 542 624 37,000  Level FlightAware ADS-B
Sun 09:02:07 AM 34.5350 30.1170 122° Southeast 635 731 37,000  Level FlightAware ADS-B
Sun 09:02:27 AM 34.5090 30.1730 119° Southeast 555 639 37,000  Level FlightAware ADS-B
Sun 09:02:58 AM 34.4690 30.2570 120° Southeast 555 639 37,000  Level FlightAware ADS-B
Sun 09:03:37 AM 34.4230 30.3560 119° Southeast 557 641 37,000  Level FlightAware ADS-B
Sun 09:04:08 AM 34.3800 30.4470 120° Southeast 556 640 37,000  Level FlightAware ADS-B
Sun 09:04:43 AM 34.3340 30.5420 120° Southeast 552 635 37,000  Level FlightAware ADS-B
Sun 09:05:18 AM 34.2860 30.6420 120° Southeast 555 639 37,000  Level FlightAware ADS-B
Sun 09:05:53 AM 34.2420 30.7330 120° Southeast 555 639 37,000  Level FlightAware ADS-B
Sun 09:06:29 AM 34.1970 30.8280 120° Southeast 550 633 37,000  Level FlightAware ADS-B
Sun 09:07:13 AM 34.1430 30.9390 120° Southeast 550 633 37,000  Level FlightAware ADS-B
Sun 09:07:44 AM 34.1000 31.0270 121° Southeast 551 634 37,000  Level FlightAware ADS-B
Sun 09:08:18 AM 34.0540 31.1200 121° Southeast 551 634 37,000  Level FlightAware ADS-B
Sun 09:08:53 AM 34.0090 31.2120 121° Southeast 550 633 37,000  Level FlightAware ADS-B
Sun 09:09:34 AM 33.9550 31.3240 120° Southeast 551 634 37,000  Level FlightAware ADS-B
Sun 09:10:04 AM 33.9160 31.4040 120° Southeast 551 634 37,000  Level FlightAware ADS-B
Sun 09:10:41 AM 33.8690 31.5000 121° Southeast 552 635 37,000  Level FlightAware ADS-B
Sun 09:11:32 AM 33.8100 31.6210 120° Southeast 552 635 37,000  Level FlightAware ADS-B
Sun 09:11:56 AM 33.7700 31.7020 121° Southeast 552 635 37,000  Level FlightAware ADS-B
Sun 09:12:32 AM 33.7240 31.7960 120° Southeast 552 635 37,000  Level FlightAware ADS-B
Sun 09:13:07 AM 33.6780 31.8880 121° Southeast 552 635 37,000  Level FlightAware ADS-B
Sun 09:13:42 AM 33.6320 31.9820 120° Southeast 552 635 37,000  Level FlightAware ADS-B
Sun 09:14:17 AM 33.5850 32.0760 121° Southeast 552 635 37,000  Level FlightAware ADS-B
Sun 09:14:52 AM 33.5420 32.1610 121° Southeast 552 635 37,000  Level FlightAware ADS-B
Sun 09:15:28 AM 33.4910 32.2650 120° Southeast 551 634 37,000  Level FlightAware ADS-B
Sun 09:16:09 AM 33.4430 32.3600 121° Southeast 551 634 37,000  Level FlightAware ADS-B
Sun 09:16:53 AM 33.3810 32.4830 121° Southeast 551 634 37,000  Level FlightAware ADS-B
Sun 09:17:25 AM 33.3400 32.5640 121° Southeast 555 639 37,000  Level FlightAware ADS-B
Sun 09:17:59 AM 33.2970 32.6490 121° Southeast 554 638 37,000 -761 Level FlightAware ADS-B
Sun 09:18:36 AM 33.2460 32.7480 122° Southeast 559 643 36,100 -1,565 Descending FlightAware ADS-B
Sun 09:19:08 AM 33.2040 32.8310 121° Southeast 563 648 35,200 -1,214 Descending FlightAware ADS-B
Sun 09:20:00 AM 33.1330 32.9710 121° Southeast 567 652 34,400 -500 Descending FlightAware ADS-B
Sun 09:20:44 AM 33.0830 33.0710 121° Southeast 567 652 34,400 -4,052 Level FlightAware ADS-B
Sun 09:21:17 AM 33.0220 33.1870 122° Southeast 550 633 29,200 -5,826 Descending FlightAware ADS-B
Sun 09:21:53 AM 32.9760 33.2760 122° Southeast 535 616 27,700 -2,500 Descending FlightAware ADS-B
Sun 09:22:29 AM 32.9300 33.3640 122° Southeast 517 595 26,200 -2,500 Descending FlightAware ADS-B
Sun 09:23:05 AM 32.8840 33.4520 122° Southeast 498 573 24,700 -2,455 Descending FlightAware ADS-B
Sun 09:23:35 AM 32.8480 33.5220 121° Southeast 484 557 23,500 -2,328 Descending FlightAware ADS-B
Sun 09:24:12 AM 32.8070 33.6010 122° Southeast 468 539 22,100 -2,368 Descending FlightAware ADS-B
Sun 09:24:51 AM 32.7620 33.6870 122° Southeast 454 522 20,500 -2,451 Descending FlightAware ADS-B
Sun 09:25:23 AM 32.7280 33.7520 122° Southeast 444 511 19,200 -2,545 Descending FlightAware ADS-B
Sun 09:25:57 AM 32.6900 33.8240 122° Southeast 435 501 17,700 -2,583 Descending FlightAware ADS-B
Sun 09:26:35 AM 32.6500 33.9010 122° Southeast 425 489 16,100 -2,432 Descending FlightAware ADS-B
Sun 09:27:11 AM 32.6150 33.9680 122° Southeast 417 480 14,700 -2,471 Descending FlightAware ADS-B
Sun 09:27:43 AM 32.5800 34.0330 123° Southeast 411 473 13,300 -2,471 Descending FlightAware ADS-B
Sun 09:28:19 AM 32.5450 34.1000 122° Southeast 406 467 11,900 -2,167 Descending FlightAware ADS-B
Sun 09:28:55 AM 32.5060 34.1680 124° Southeast 391 450 10,700 -1,250 Descending FlightAware ADS-B
Sun 09:29:31 AM 32.4650 34.2230 131° Southeast 355 409 10,400 -435 Descending FlightAware ADS-B
Sun 09:30:04 AM 32.4290 34.2650 135° Southeast 328 377 10,200 -400 Descending FlightAware ADS-B
Sun 09:30:31 AM 32.4000 34.2980 136° Southeast 306 352 10,000 -1,149 Descending FlightAware ADS-B
Sun 09:30:51 AM 32.3800 34.3220 135° Southeast 314 361 9,300 -1,714 Descending FlightAware ADS-B
Sun 09:31:13 AM 32.3560 34.3500 135° Southeast 311 358 8,800 -677 Descending FlightAware ADS-B
Sun 09:31:53 AM 32.3220 34.3910 134° Southeast 308 354 8,600 -188 Descending FlightAware ADS-B
Sun 09:32:17 AM 32.3010 34.4150 136° Southeast 308 354 8,600  Level FlightAware ADS-B
Sun 09:32:41 AM 32.2800 34.4400 135° Southeast 308 354 8,600  Level FlightAware ADS-B
Sun 09:33:05 AM 32.2600 34.4640 135° Southeast 308 354 8,600  Level FlightAware ADS-B
Sun 09:35:00 AM 32.0919 34.7303 125° Southeast  Level FlightAware Approximate
Sun 09:36:00 AM 32.0008 34.8656 131° Southeast  Level FlightAware Approximate
Sun 09:37:00 AM 32.0000 34.8667 North  Level FlightAware Approximate
Sun 09:38:00 AM 32.0095 34.8769 North  Level Estimated
Sun 09:39:00 AM 32.0095 34.8769 North  Level Estimated
Sun 09:40:00 AM 32.0095 34.8769 North  Level Estimated
Sun 09:41:00 AM 32.0095 34.8769 North  Level Estimated
Sun 09:42:00 AM 32.0095 34.8769 North  Level Estimated
Sun 09:43:00 AM 32.0095 34.8769 North  Level Estimated

Login

Don't have an account? Register now (free) for customized features, flight alerts, and more!